Data Archive--August, 2004

Date Time Heat Index Current Temp Wind Chill High Temp Low Temp Humidity Dew Point Wind Speed Gust Wind Direction Rain Barometer
08/01/2004 12:00 a 81.1 76.9 76.9 77.1 76.8 91 74.1 0.0 2.0 SW 0.00 29.918
08/01/2004 12:30 a 81.1 76.7 76.7 76.8 76.6 91 73.9 0.0 0.0 --- 0.00 29.915
08/01/2004 1:00 a 80.0 76.4 76.4 76.7 76.1 93 74.2 0.0 0.0 --- 0.00 29.920
08/01/2004 1:30 a 80.0 76.0 76.0 76.2 75.8 94 74.2 0.0 0.0 --- 0.00 29.909
08/01/2004 2:00 a 80.0 75.6 75.6 75.8 75.6 95 74.1 0.0 0.0 --- 0.00 29.900
08/01/2004 2:30 a 80.0 75.8 75.8 75.9 75.7 95 74.3 0.0 0.0 --- 0.00 29.902
08/01/2004 3:00 a 80.0 75.9 75.9 76.0 75.9 95 74.4 0.0 0.0 --- 0.00 29.903
08/01/2004 3:30 a 80.0 75.8 75.8 75.9 75.6 96 74.6 0.0 1.0 --- 0.00 29.896
08/01/2004 4:00 a 80.0 75.6 75.6 75.6 75.4 97 74.7 0.0 1.0 --- 0.00 29.894
08/01/2004 4:30 a 79.0 75.3 75.3 75.4 75.2 100 75.3 0.0 0.0 --- 0.00 29.892
08/01/2004 5:00 a 79.0 75.3 75.3 75.4 75.2 100 75.3 0.0 0.0 --- 0.00 29.898
08/01/2004 5:30 a 79.0 75.1 75.1 75.2 75.1 100 75.1 0.0 0.0 --- 0.01 29.899
08/01/2004 6:00 a 79.0 75.3 75.3 75.5 75.1 100 75.3 0.0 0.0 --- 0.00 29.903
08/01/2004 6:30 a 79.0 75.0 75.0 75.3 74.8 100 75.0 0.0 0.0 --- 0.00 29.907
08/01/2004 7:00 a 79.0 74.9 74.9 74.9 74.8 100 74.9 0.0 0.0 --- 0.00 29.909
08/01/2004 7:30 a 79.0 75.0 75.0 75.0 74.9 100 75.0 0.0 0.0 --- 0.00 29.914
08/01/2004 8:00 a 79.0 75.0 75.0 75.0 75.0 100 75.0 0.0 0.0 --- 0.00 29.926
08/01/2004 8:30 a 78.0 74.0 74.0 75.0 71.0 100 74.0 0.0 5.0 S 0.00 29.936
08/01/2004 9:00 a 74.0 70.3 70.3 71.0 69.9 100 70.3 0.0 0.0 --- 0.00 29.928
08/01/2004 9:30 a 75.0 70.6 70.6 70.6 70.5 100 70.6 0.0 0.0 --- 0.00 29.937
08/01/2004 10:00 a 74.0 70.3 70.3 70.6 70.2 100 70.3 0.0 0.0 --- 0.00 29.918
08/01/2004 10:30 a 75.0 70.7 70.7 70.9 70.5 100 70.7 0.0 1.0 SE 0.00 29.898
08/01/2004 11:00 a 75.0 70.5 70.5 70.7 70.2 100 70.5 0.0 3.0 SE 0.00 29.925
08/01/2004 11:30 a 76.0 71.5 71.5 72.6 70.7 100 71.5 0.0 2.0 SE 0.01 29.896
08/01/2004 12:00 p 78.0 74.0 74.0 75.2 72.6 100 74.0 0.0 0.0 --- 0.00 29.908
08/01/2004 12:30 p 82.0 76.6 76.6 77.8 75.2 100 76.6 0.0 0.0 --- 0.00 29.911
08/01/2004 1:00 p 86.6 78.6 78.6 81.6 77.4 98 78.0 0.0 2.0 SE 0.00 29.913
08/01/2004 1:30 p 96.8 84.4 84.4 87.2 81.6 87 80.1 0.0 2.0 NNE 0.00 29.912
08/01/2004 2:00 p 100.6 85.0 85.0 86.0 83.9 89 81.4 0.0 1.0 NNE 0.00 29.908
08/01/2004 2:30 p 91.4 83.1 83.1 85.3 81.4 81 76.7 0.0 1.0 --- 0.00 29.899
08/01/2004 3:00 p 91.4 84.8 84.8 87.7 83.3 66 72.2 0.0 1.0 NNE 0.00 29.887
08/01/2004 3:30 p 96.2 86.3 86.3 88.1 85.1 73 76.6 0.0 3.0 SE 0.00 29.876
08/01/2004 4:00 p 91.6 84.1 84.1 85.2 83.6 72 74.1 0.0 2.0 N 0.00 29.866
08/01/2004 4:30 p 90.6 83.9 83.9 84.3 83.6 69 72.6 0.0 1.0 N 0.00 29.856
08/01/2004 5:00 p 90.6 83.8 83.8 84.1 83.6 69 72.6 0.0 1.0 N 0.01 29.854
08/01/2004 5:30 p 91.0 83.6 83.6 83.9 82.9 70 72.8 0.0 2.0 N 0.00 29.856
08/01/2004 6:00 p 88.0 82.1 82.1 82.9 81.5 75 73.4 0.0 1.0 --- 0.00 29.844
08/01/2004 6:30 p 86.6 81.0 81.0 81.5 80.3 78 73.5 0.0 0.0 --- 0.00 29.839
08/01/2004 7:00 p 85.2 79.7 79.7 80.3 79.1 81 73.4 0.0 0.0 --- 0.00 29.848
08/01/2004 7:30 p 83.6 78.7 78.7 79.1 78.0 83 73.1 0.0 0.0 --- 0.00 29.848
08/01/2004 8:00 p 81.0 77.2 77.2 77.9 76.6 87 73.0 0.0 0.0 --- 0.00 29.848
08/01/2004 8:30 p 80.0 76.2 76.2 76.6 75.7 90 73.1 0.0 0.0 --- 0.00 29.849
08/01/2004 9:00 p 78.2 75.3 75.3 75.7 75.1 92 72.8 0.0 0.0 --- 0.00 29.861
08/01/2004 9:30 p 78.3 75.0 75.0 75.2 74.9 93 72.8 0.0 0.0 --- 0.00 29.865
08/01/2004 10:00 p 78.2 75.1 75.1 75.2 74.9 92 72.6 0.0 0.0 --- 0.01 29.857
08/01/2004 10:30 p 78.4 74.8 74.8 75.2 74.4 94 73.0 0.0 0.0 --- 0.00 29.852
08/01/2004 11:00 p 77.2 74.1 74.1 74.4 73.9 96 72.9 0.0 0.0 --- 0.00 29.856
08/01/2004 11:30 p 78.0 73.7 73.7 73.9 73.4 100 73.7 0.0 0.0 --- 0.00 29.863
08/02/2004 12:00 a 77.0 73.0 73.0 73.4 72.7 100 73.0 0.0 0.0 --- 0.00 29.855
08/02/2004 12:30 a 77.0 72.7 72.7 72.7 72.5 100 72.7 0.0 0.0 --- 0.00 29.850
08/02/2004 1:00 a 76.0 72.3 72.3 72.5 72.1 100 72.3 0.0 0.0 --- 0.00 29.847
08/02/2004 1:30 a 76.0 72.3 72.3 72.4 72.1 100 72.3 0.0 0.0 --- 0.00 29.845
08/02/2004 2:00 a 76.0 71.7 71.7 72.1 71.6 100 71.7 0.0 0.0 --- 0.00 29.840
08/02/2004 2:30 a 76.0 71.8 71.8 71.9 71.7 100 71.8 0.0 0.0 --- 0.00 29.840
08/02/2004 3:00 a 76.0 71.7 71.7 71.7 71.5 100 71.7 0.0 0.0 --- 0.00 29.839
08/02/2004 3:30 a 76.0 71.5 71.5 71.7 71.4 100 71.5 0.0 0.0 --- 0.00 29.842
08/02/2004 4:00 a 76.0 71.6 71.6 71.7 71.6 100 71.6 0.0 0.0 --- 0.00 29.839
08/02/2004 4:30 a 75.0 71.4 71.4 71.6 71.4 100 71.4 0.0 0.0 --- 0.00 29.836
08/02/2004 5:00 a 76.0 71.8 71.8 72.1 71.5 100 71.8 0.0 0.0 --- 0.00 29.834
08/02/2004 5:30 a 76.0 72.3 72.3 72.4 72.1 100 72.3 0.0 0.0 --- 0.00 29.838
08/02/2004 6:00 a 77.0 72.5 72.5 72.5 72.4 100 72.5 0.0 0.0 --- 0.00 29.838
08/02/2004 6:30 a 76.0 72.4 72.4 72.5 72.3 100 72.4 0.0 0.0 --- 0.01 29.836
08/02/2004 7:00 a 76.0 72.4 72.4 72.5 72.3 100 72.4 0.0 0.0 --- 0.00 29.836
08/02/2004 7:30 a 77.0 72.6 72.6 72.9 72.5 100 72.6 0.0 0.0 --- 0.00 29.842
08/02/2004 8:00 a 77.2 74.2 74.2 75.0 72.9 96 73.0 0.0 0.0 --- 0.00 29.845
08/02/2004 8:30 a 78.1 75.2 75.2 75.7 75.0 91 72.4 0.0 2.0 ENE 0.00 29.847
08/02/2004 9:00 a 81.0 76.5 76.5 77.3 75.7 87 72.3 0.0 2.0 E 0.00 29.851
08/02/2004 9:30 a 82.5 78.1 78.1 78.6 77.3 85 73.2 0.0 2.0 ESE 0.00 29.853
08/02/2004 10:00 a 84.8 79.6 79.6 80.5 78.6 79 72.5 0.0 2.0 SE 0.00 29.855
08/02/2004 10:30 a 86.8 81.1 81.1 81.4 80.6 79 74.0 0.0 0.0 --- 0.00 29.850
08/02/2004 11:00 a 84.6 80.4 80.4 81.5 79.8 78 72.9 0.0 0.0 --- 0.00 29.841
08/02/2004 11:30 a 89.2 83.3 83.3 83.9 81.5 71 72.9 0.0 1.0 --- 0.00 29.835
08/02/2004 12:00 p 89.0 83.2 83.2 84.3 82.6 70 72.4 0.0 1.0 ENE 0.00 29.830
08/02/2004 12:30 p 89.8 85.4 85.4 86.4 84.3 62 70.9 0.0 0.0 --- 0.01 29.823
08/02/2004 1:00 p 96.6 85.7 85.7 88.7 83.1 74 76.5 0.0 2.0 E 0.00 29.821
08/02/2004 1:30 p 88.0 82.3 82.3 83.1 82.0 75 73.6 0.0 0.0 --- 0.00 29.814
08/02/2004 2:00 p 87.8 82.3 82.3 82.8 82.0 74 73.2 0.0 0.0 --- 0.00 29.810
08/02/2004 2:30 p 90.0 79.6 79.6 82.1 76.9 100 79.6 0.0 0.0 --- 0.00 29.798
08/02/2004 3:00 p 88.2 80.0 80.0 83.7 76.9 94 78.1 0.0 1.0 E 0.00 29.790
08/02/2004 3:30 p 97.8 82.7 82.7 83.7 82.1 97 81.8 0.0 2.0 NNE 0.00 29.786
08/02/2004 4:00 p 94.4 82.2 82.2 82.4 81.9 96 81.0 0.0 2.0 NNE 0.00 29.779
08/02/2004 4:30 p 94.0 82.2 82.2 82.4 81.9 95 80.6 0.0 2.0 NNE 0.00 29.775
08/02/2004 5:00 p 94.0 81.9 81.9 82.6 80.6 95 80.3 0.0 2.0 ENE 0.00 29.771
08/02/2004 5:30 p 89.1 79.9 79.9 80.6 79.5 97 79.0 0.0 1.0 NE 0.00 29.764
08/02/2004 6:00 p 88.8 80.4 80.4 80.7 79.9 96 79.2 0.0 0.0 --- 0.00 29.769
08/02/2004 6:30 p 89.8 80.7 80.7 80.9 80.5 92 78.2 0.0 1.0 --- 0.00 29.779
08/02/2004 7:00 p 86.2 80.3 80.3 80.9 79.7 86 75.7 0.0 2.0 NE 0.00 29.773
08/02/2004 7:30 p 86.2 79.5 79.5 79.7 79.1 86 74.9 0.0 1.0 NE 0.01 29.778
08/02/2004 8:00 p 83.8 78.8 78.8 79.1 78.4 84 73.6 0.0 1.0 --- 0.00 29.784
08/02/2004 8:30 p 82.8 77.8 77.8 78.4 77.2 88 74.0 0.0 0.0 --- 0.00 29.773
08/02/2004 9:00 p 81.0 77.2 77.2 77.3 77.0 89 73.7 0.0 0.0 --- 0.00 29.789
08/02/2004 9:30 p 81.2 76.5 76.5 77.0 75.9 92 74.0 0.0 0.0 --- 0.00 29.791
08/02/2004 10:00 p 78.5 75.3 75.3 75.9 74.8 95 73.8 0.0 0.0 --- 0.00 29.796
08/02/2004 10:30 p 77.6 74.4 74.4 74.8 74.0 98 73.8 0.0 0.0 --- 0.00 29.790
08/02/2004 11:00 p 77.4 74.0 74.0 74.6 73.8 97 73.1 0.0 0.0 --- 0.00 29.788
08/02/2004 11:30 p 78.2 75.2 75.2 75.5 74.6 92 72.7 0.0 0.0 --- 0.00 29.787
08/03/2004 12:00 a 78.1 75.3 75.3 75.5 74.9 91 72.5 0.0 0.0 --- 0.00 29.783
08/03/2004 12:30 a 76.6 74.2 74.2 74.8 73.6 93 72.0 0.0 0.0 --- 0.00 29.776
08/03/2004 1:00 a 75.8 73.4 73.4 73.7 73.3 94 71.6 0.0 0.0 --- 0.00 29.769
08/03/2004 1:30 a 76.2 73.2 73.2 73.4 72.8 96 72.0 0.0 0.0 --- 0.00 29.766
08/03/2004 2:00 a 75.8 72.4 72.4 72.8 72.0 99 72.1 0.0 0.0 --- 0.01 29.762
08/03/2004 2:30 a 76.0 71.9 71.9 72.0 71.8 100 71.9 0.0 0.0 --- 0.00 29.756
08/03/2004 3:00 a 76.0 71.6 71.6 71.8 71.3 100 71.6 0.0 0.0 --- 0.00 29.744
08/03/2004 3:30 a 75.0 71.0 71.0 71.3 70.7 100 71.0 0.0 0.0 --- 0.00 29.735
08/03/2004 4:00 a 75.0 70.5 70.5 70.7 70.3 100 70.5 0.0 0.0 --- 0.00 29.732
08/03/2004 4:30 a 74.0 70.3 70.3 70.3 70.1 100 70.3 0.0 0.0 --- 0.00 29.733
08/03/2004 5:00 a 74.0 70.0 70.0 70.1 69.8 100 70.0 0.0 0.0 --- 0.00 29.728
08/03/2004 5:30 a 74.0 69.7 69.7 69.9 69.7 100 69.7 0.0 0.0 --- 0.00 29.732
08/03/2004 6:00 a 74.0 70.2 70.2 70.6 69.8 100 70.2 0.0 0.0 --- 0.00 29.730
08/03/2004 6:30 a 75.0 71.0 71.0 71.4 70.5 100 71.0 0.0 0.0 --- 0.00 29.744
08/03/2004 7:00 a 76.0 71.7 71.7 72.1 71.4 100 71.7 0.0 0.0 --- 0.00 29.744
08/03/2004 7:30 a 77.0 72.5 72.5 72.9 72.1 100 72.5 0.0 0.0 --- 0.00 29.744
08/03/2004 8:00 a 76.0 73.3 73.3 73.9 72.9 95 71.8 0.0 0.0 --- 0.00 29.746
08/03/2004 8:30 a 76.8 74.1 74.1 74.3 73.8 94 72.3 0.0 0.0 --- 0.00 29.743
08/03/2004 9:00 a 78.3 74.5 74.5 74.6 74.3 93 72.3 0.0 1.0 --- 0.00 29.739
08/03/2004 9:30 a 78.0 75.1 75.1 75.9 74.5 90 72.0 0.0 0.0 --- 0.00 29.743
08/03/2004 10:00 a 79.9 76.3 76.3 76.6 75.9 89 72.8 0.0 1.0 NE 0.00 29.746
08/03/2004 10:30 a 79.7 76.4 76.4 77.0 75.8 87 72.2 0.0 2.0 ENE 0.00 29.738
08/03/2004 11:00 a 82.3 77.5 77.5 78.9 77.0 83 71.9 0.0 0.0 --- 0.00 29.731
08/03/2004 11:30 a 85.0 79.9 79.9 80.8 78.9 80 73.2 0.0 1.0 ENE 0.01 29.727
08/03/2004 12:00 p 86.8 81.2 81.2 81.6 80.8 79 74.1 0.0 0.0 --- 0.00 29.715
08/03/2004 12:30 p 89.6 82.6 82.6 84.1 81.4 73 73.1 0.0 0.0 --- 0.00 29.704
08/03/2004 1:00 p 90.6 84.7 84.7 88.4 83.2 64 71.2 0.0 0.0 --- 0.00 29.686
08/03/2004 1:30 p 103.8 90.5 90.5 93.3 87.7 64 76.7 0.0 0.0 --- 0.00 29.677
08/03/2004 2:00 p 99.8 91.6 91.6 94.4 87.1 53 72.1 0.0 0.0 --- 0.00 29.667
08/03/2004 2:30 p 104.4 93.7 93.7 94.3 92.2 53 74.0 0.0 0.0 --- 0.00 29.673
08/03/2004 3:00 p 100.4 91.8 91.8 93.9 90.3 54 72.8 0.0 0.0 --- 0.00 29.669
08/03/2004 3:30 p 101.0 91.3 91.3 93.6 88.8 60 75.5 0.0 0.0 --- 0.00 29.657
08/03/2004 4:00 p 96.7 89.1 89.1 89.4 88.8 59 72.9 0.0 0.0 --- 0.00 29.653
08/03/2004 4:30 p 100.0 88.5 88.5 89.2 86.3 66 75.7 0.0 0.0 --- 0.01 29.643
08/03/2004 5:00 p 92.2 84.0 84.0 86.2 83.2 74 74.8 0.0 0.0 --- 0.00 29.636
08/03/2004 5:30 p 90.0 83.3 83.3 83.6 83.1 75 74.6 0.0 3.0 NNE 0.00 29.634
08/03/2004 6:00 p 92.8 83.9 83.9 84.4 83.0 76 75.5 0.0 2.0 NNE 0.00 29.627
08/03/2004 6:30 p 88.6 81.9 81.9 83.0 81.3 78 74.4 0.0 2.0 NNE 0.00 29.618
08/03/2004 7:00 p 90.0 80.4 80.4 81.3 77.2 100 80.4 0.0 2.0 NNE 0.00 29.633
08/03/2004 7:30 p 78.0 74.1 74.1 77.2 72.0 100 74.1 0.0 2.0 NE 0.00 29.611
08/03/2004 8:00 p 76.0 71.7 71.7 72.0 71.1 100 71.7 0.0 0.0 --- 0.00 29.621
08/03/2004 8:30 p 76.0 71.5 71.5 71.7 71.1 100 71.5 0.0 0.0 --- 0.00 29.633
08/03/2004 9:00 p 76.0 71.5 71.5 71.8 71.3 100 71.5 0.0 0.0 --- 0.00 29.624
08/03/2004 9:30 p 75.0 71.2 71.2 71.3 71.1 100 71.2 0.0 0.0 --- 0.00 29.627
08/03/2004 10:00 p 75.0 71.3 71.3 71.4 71.2 100 71.3 0.0 0.0 --- 0.00 29.628
08/03/2004 10:30 p 75.0 71.0 71.0 71.2 70.9 100 71.0 0.0 0.0 --- 0.00 29.613
08/03/2004 11:00 p 75.0 70.8 70.8 70.9 70.7 100 70.8 0.0 0.0 --- 0.00 29.607
08/03/2004 11:30 p 75.0 70.7 70.7 70.8 70.6 100 70.7 0.0 0.0 --- 0.00 29.601
08/04/2004 12:00 a 75.0 70.6 70.6 70.8 70.4 100 70.6 0.0 0.0 --- 0.01 29.597
08/04/2004 12:30 a 75.0 70.5 70.5 70.6 70.4 100 70.5 0.0 0.0 --- 0.00 29.596
08/04/2004 1:00 a 74.0 70.3 70.3 70.5 70.1 100 70.3 0.0 0.0 --- 0.00 29.598
08/04/2004 1:30 a 74.0 70.0 70.0 70.1 69.9 100 70.0 0.0 0.0 --- 0.00 29.593
08/04/2004 2:00 a 74.0 69.9 69.9 70.1 69.7 100 69.9 0.0 0.0 --- 0.00 29.598
08/04/2004 2:30 a 74.0 69.7 69.7 69.8 69.6 100 69.7 0.0 0.0 --- 0.00 29.591
08/04/2004 3:00 a 74.0 69.5 69.5 69.6 69.3 100 69.5 0.0 0.0 --- 0.00 29.582
08/04/2004 3:30 a 72.0 69.3 69.3 69.4 69.2 100 69.3 0.0 0.0 --- 0.00 29.577
08/04/2004 4:00 a 72.0 69.2 69.2 69.4 69.1 100 69.2 0.0 0.0 --- 0.00 29.571
08/04/2004 4:30 a 72.0 69.0 69.0 69.1 68.8 100 69.0 0.0 0.0 --- 0.00 29.571
08/04/2004 5:00 a 72.0 68.7 68.7 68.8 68.5 100 68.7 0.0 0.0 --- 0.00 29.577
08/04/2004 5:30 a 70.0 68.4 68.4 68.5 68.3 100 68.4 0.0 0.0 --- 0.01 29.581
08/04/2004 6:00 a 70.0 68.3 68.3 68.4 68.1 100 68.3 0.0 0.0 --- 0.00 29.578
08/04/2004 6:30 a 70.0 68.1 68.1 68.3 68.0 100 68.1 0.0 0.0 --- 0.00 29.580
08/04/2004 7:00 a 72.0 68.6 68.6 68.9 68.3 100 68.6 0.0 0.0 --- 0.00 29.582
08/04/2004 7:30 a 74.0 69.5 69.5 70.5 68.9 100 69.5 0.0 0.0 --- 0.00 29.590
08/04/2004 8:00 a 76.0 71.7 71.7 72.5 70.5 100 71.7 0.0 0.0 --- 0.00 29.604
08/04/2004 8:30 a 76.0 72.2 72.2 72.8 71.9 100 72.2 0.0 0.0 --- 0.00 29.617
08/04/2004 9:00 a 77.0 73.3 73.3 75.4 72.8 100 73.3 0.0 0.0 --- 0.00 29.614
08/04/2004 9:30 a 79.0 75.2 75.2 76.2 74.5 100 75.2 0.0 2.0 SE 0.00 29.612
08/04/2004 10:00 a 80.0 76.0 76.0 76.3 75.7 100 76.0 0.0 2.0 SE 0.00 29.610
08/04/2004 10:30 a 82.0 77.2 77.2 79.2 76.3 100 77.2 0.0 1.0 --- 0.00 29.600
08/04/2004 11:00 a 87.0 79.0 79.0 79.9 78.6 100 79.0 0.0 1.0 SE 0.00 29.595
08/04/2004 11:30 a 87.0 78.8 78.8 79.5 78.5 100 78.8 0.0 3.0 SE 0.00 29.604
08/04/2004 12:00 p 91.4 80.5 80.5 81.8 79.5 96 79.3 0.0 1.0 --- 0.00 29.602
08/04/2004 12:30 p 92.6 82.8 82.8 84.1 81.8 84 77.5 0.0 3.0 SSE 0.01 29.592
08/04/2004 1:00 p 92.7 87.3 87.3 91.3 84.2 59 71.2 0.0 3.0 SSE 0.00 29.591
08/04/2004 1:30 p 103.6 93.5 93.5 95.5 91.0 52 73.2 0.0 4.0 SSE 0.00 29.572
08/04/2004 2:00 p 102.8 95.5 95.5 97.5 94.0 43 69.5 0.0 2.0 SSE 0.00 29.576
08/04/2004 2:30 p 97.2 92.2 92.2 96.4 89.4 48 69.7 0.0 3.0 SSE 0.00 29.576
08/04/2004 3:00 p 96.4 92.9 92.9 95.0 89.6 41 65.8 0.0 3.0 SSE 0.00 29.569
08/04/2004 3:30 p 94.8 90.7 90.7 94.7 88.6 46 67.1 0.0 2.0 ESE 0.00 29.558
08/04/2004 4:00 p 89.4 87.1 87.1 88.5 86.6 48 65.0 0.0 3.0 ESE 0.00 29.555
08/04/2004 4:30 p 92.4 86.5 86.5 87.7 84.9 58 70.0 0.0 1.0 SSE 0.01 29.557
08/04/2004 5:00 p 88.6 84.8 84.8 85.4 84.4 58 68.4 0.0 1.0 SSE 0.00 29.556
08/04/2004 5:30 p 86.9 84.3 84.3 84.6 83.7 59 68.4 0.0 0.0 --- 0.00 29.551
08/04/2004 6:00 p 87.4 84.0 84.0 84.6 82.9 61 69.1 0.0 0.0 --- 0.00 29.553
08/04/2004 6:30 p 85.8 82.3 82.3 82.9 81.7 66 69.8 0.0 0.0 --- 0.00 29.553
08/04/2004 7:00 p 84.2 81.3 81.3 81.7 80.3 66 68.9 0.0 0.0 --- 0.00 29.557
08/04/2004 7:30 p 82.2 79.1 79.1 80.2 78.2 76 70.9 0.0 0.0 --- 0.00 29.558
08/04/2004 8:00 p 80.6 77.4 77.4 78.2 76.7 78 70.0 0.0 0.0 --- 0.00 29.555
08/04/2004 8:30 p 81.0 76.6 76.6 76.7 76.5 80 70.0 0.0 0.0 --- 0.00 29.555
08/04/2004 9:00 p 80.0 76.4 76.4 77.1 75.9 91 73.6 0.0 0.0 --- 0.00 29.551
08/04/2004 9:30 p 79.0 74.9 74.9 76.7 74.2 100 74.9 0.0 0.0 --- 0.00 29.563
08/04/2004 10:00 p 78.0 74.3 74.3 74.4 74.1 100 74.3 0.0 1.0 --- 0.00 29.566
08/04/2004 10:30 p 78.0 74.1 74.1 74.2 74.0 100 74.1 0.0 3.0 N 0.01 29.566
08/04/2004 11:00 p 78.0 73.9 73.9 74.1 73.5 100 73.9 0.0 1.0 NNW 0.00 29.557
08/04/2004 11:30 p 77.0 73.2 73.2 73.5 73.0 100 73.2 0.0 2.0 --- 0.00 29.562
08/05/2004 12:00 a 77.0 72.5 72.5 73.0 72.0 100 72.5 0.0 1.0 --- 0.00 29.555
08/05/2004 12:30 a 76.0 71.6 71.6 72.0 71.4 100 71.6 0.0 2.0 N 0.00 29.549
08/05/2004 1:00 a 75.0 71.4 71.4 71.4 71.3 100 71.4 0.0 0.0 --- 0.00 29.536
08/05/2004 1:30 a 75.0 71.4 71.4 71.4 71.3 100 71.4 0.0 0.0 --- 0.00 29.531
08/05/2004 2:00 a 75.0 71.3 71.3 71.3 71.1 100 71.3 0.0 1.0 --- 0.00 29.526
08/05/2004 2:30 a 75.0 71.1 71.1 71.2 71.0 100 71.1 0.0 0.0 --- 0.00 29.529
08/05/2004 3:00 a 74.0 69.6 69.6 71.2 67.7 100 69.6 0.0 3.0 SSE 0.00 29.534
08/05/2004 3:30 a 67.0 67.0 67.0 67.7 66.5 100 67.0 0.0 5.0 SSE 0.00 29.550
08/05/2004 4:00 a 66.4 66.4 66.4 66.5 66.2 100 66.4 0.0 5.0 SSE 0.01 29.554
08/05/2004 4:30 a 66.2 66.2 66.2 66.3 66.1 100 66.2 0.0 3.0 SSE 0.00 29.565
08/05/2004 5:00 a 66.0 66.0 66.0 66.1 65.9 100 66.0 0.0 2.0 SSE 0.00 29.576
08/05/2004 5:30 a 65.9 65.9 65.9 66.0 65.9 100 65.9 0.0 3.0 SSE 0.00 29.584
08/05/2004 6:00 a 65.9 65.9 65.9 66.0 65.8 100 65.9 0.0 2.0 SSE 0.00 29.582
08/05/2004 6:30 a 65.1 65.1 65.1 65.8 65.0 100 65.1 0.0 3.0 SSE 0.00 29.598
08/05/2004 7:00 a 64.9 64.9 64.9 65.1 64.8 100 64.9 0.0 3.0 SSE 0.00 29.596
08/05/2004 7:30 a 65.4 65.4 65.4 65.7 65.1 100 65.4 0.0 2.0 SSE 0.00 29.604
08/05/2004 8:00 a 65.9 65.9 65.9 66.2 65.7 100 65.9 0.0 4.0 SSE 0.00 29.608
08/05/2004 8:30 a 66.7 66.7 66.7 67.2 66.2 100 66.7 0.0 0.0 --- 0.00 29.616
08/05/2004 9:00 a 67.4 67.4 67.4 67.9 67.1 99 67.1 0.0 3.0 SSE 0.00 29.610
08/05/2004 9:30 a 70.0 68.1 68.1 68.4 67.8 97 67.2 0.0 1.0 SSE 0.00 29.621
08/05/2004 10:00 a 71.2 68.9 68.9 69.5 68.3 92 66.5 0.0 3.0 S 0.01 29.633
08/05/2004 10:30 a 71.0 69.0 69.0 69.5 68.5 90 65.9 0.0 4.0 SSE 0.00 29.648
08/05/2004 11:00 a 71.0 69.1 69.1 69.3 68.5 87 65.1 0.0 2.0 SSE 0.00 29.658
08/05/2004 11:30 a 72.0 69.7 69.7 70.1 69.2 87 65.7 0.0 2.0 SSE 0.00 29.659
08/05/2004 12:00 p 72.0 69.7 69.7 70.0 69.6 86 65.3 0.0 1.0 SSE 0.00 29.665
08/05/2004 12:30 p 72.8 71.7 71.7 74.3 69.7 74 63.0 0.0 0.0 --- 0.00 29.644
08/05/2004 1:00 p 79.0 78.9 78.9 86.1 74.3 47 57.0 0.0 4.0 SSE 0.00 29.637
08/05/2004 1:30 p 91.6 87.6 87.6 89.1 84.9 49 66.1 0.0 3.0 SSE 0.00 29.630
08/05/2004 2:00 p 80.8 80.3 80.3 84.8 77.8 54 62.2 0.0 3.0 SSE 0.00 29.633
08/05/2004 2:30 p 84.8 84.2 84.2 87.0 81.1 44 59.9 0.0 2.0 SSE 0.00 29.634
08/05/2004 3:00 p 85.8 84.5 84.5 85.5 83.5 44 60.2 0.0 2.0 ESE 0.01 29.622
08/05/2004 3:30 p 83.3 82.0 82.0 84.2 79.4 53 63.2 0.0 2.0 SSE 0.00 29.604
08/05/2004 4:00 p 78.4 78.3 78.3 79.4 77.3 54 60.3 0.0 2.0 SSE 0.00 29.600
08/05/2004 4:30 p 77.0 76.6 76.6 77.3 76.4 58 60.7 0.0 2.0 --- 0.00 29.594
08/05/2004 5:00 p 76.0 76.2 76.2 76.5 75.8 59 60.8 0.0 1.0 SSE 0.00 29.595
08/05/2004 5:30 p 77.0 75.2 75.2 75.8 74.6 72 65.6 0.0 0.0 --- 0.00 29.600
08/05/2004 6:00 p 75.0 73.3 73.3 74.6 71.8 80 66.8 0.0 0.0 --- 0.00 29.615
08/05/2004 6:30 p 72.0 71.4 71.4 71.8 70.5 75 63.1 0.0 3.0 SSE 0.00 29.630
08/05/2004 7:00 p 70.0 68.0 68.0 70.5 66.0 100 68.0 0.0 3.0 SSE 0.00 29.628
08/05/2004 7:30 p 66.1 66.1 66.1 66.2 65.9 100 66.1 0.0 2.0 SSE 0.00 29.637
08/05/2004 8:00 p 66.6 66.6 66.6 67.0 66.2 100 66.6 0.0 0.0 --- 0.00 29.642
08/05/2004 8:30 p 66.7 66.7 66.7 66.9 66.5 100 66.7 0.0 0.0 --- 0.00 29.650
08/05/2004 9:00 p 66.2 66.2 66.2 66.5 65.7 100 66.2 0.0 0.0 --- 0.00 29.667
08/05/2004 9:30 p 65.4 65.4 65.4 65.7 65.3 100 65.4 0.0 0.0 --- 0.01 29.679
08/05/2004 10:00 p 65.2 65.2 65.2 65.3 65.2 100 65.2 0.0 0.0 --- 0.00 29.690
08/05/2004 10:30 p 65.5 65.5 65.5 66.0 65.3 100 65.5 0.0 0.0 --- 0.00 29.700
08/05/2004 11:00 p 66.1 66.1 66.1 66.3 66.0 90 63.1 0.0 3.0 SSE 0.00 29.702
08/05/2004 11:30 p 65.8 65.8 65.8 66.2 65.5 92 63.4 0.0 3.0 SSE 0.00 29.703
08/06/2004 12:00 a 65.3 65.3 65.3 65.5 65.1 89 62.0 0.0 2.0 SSE 0.00 29.707
08/06/2004 12:30 a 64.9 64.9 64.9 65.2 64.6 87 60.9 0.0 3.0 SSE 0.00 29.711
08/06/2004 1:00 a 64.4 64.4 64.4 64.6 64.2 87 60.5 0.0 3.0 SSE 0.00 29.704
08/06/2004 1:30 a 63.9 63.9 63.9 64.2 63.6 85 59.3 0.0 2.0 SSE 0.00 29.696
08/06/2004 2:00 a 63.0 63.0 63.0 63.6 62.5 79 56.4 0.0 2.0 SSE 0.00 29.690
08/06/2004 2:30 a 62.1 62.1 62.1 62.5 61.7 73 53.4 0.0 2.0 SSE 0.00 29.685
08/06/2004 3:00 a 61.2 61.2 61.2 61.7 60.7 73 52.5 0.0 2.0 SSE 0.00 29.686
08/06/2004 3:30 a 60.4 60.4 60.4 60.7 60.0 74 52.1 0.0 2.0 SSE 0.01 29.686
08/06/2004 4:00 a 59.8 59.8 59.8 60.0 59.5 75 51.9 0.0 2.0 SSE 0.00 29.677
08/06/2004 4:30 a 59.3 59.3 59.3 59.5 59.1 75 51.4 0.0 2.0 SSE 0.00 29.682
08/06/2004 5:00 a 59.1 59.1 59.1 59.2 58.8 76 51.6 0.0 1.0 SSE 0.00 29.695
08/06/2004 5:30 a 58.2 58.2 58.2 58.8 57.7 80 52.1 0.0 0.0 --- 0.00 29.697
08/06/2004 6:00 a 57.5 57.5 57.5 57.7 57.4 80 51.4 0.0 0.0 --- 0.00 29.697
08/06/2004 6:30 a 57.5 57.5 57.5 57.6 57.4 81 51.7 0.0 0.0 --- 0.00 29.703
08/06/2004 7:00 a 56.8 56.8 56.8 57.4 56.3 81 51.0 0.0 0.0 --- 0.00 29.708
08/06/2004 7:30 a 59.1 59.1 59.1 60.4 57.4 72 50.1 0.0 3.0 SSE 0.00 29.721
08/06/2004 8:00 a 61.3 61.3 61.3 61.8 60.5 69 51.1 0.0 2.0 SSE 0.00 29.732
08/06/2004 8:30 a 62.2 62.2 62.2 62.3 61.8 70 52.3 0.0 2.0 SSE 0.00 29.735
08/06/2004 9:00 a 63.7 63.7 63.7 66.1 62.3 59 49.1 0.0 2.0 SSE 0.00 29.735
08/06/2004 9:30 a 67.2 68.9 68.9 71.2 66.2 51 50.0 0.0 3.0 SSE 0.00 29.739
08/06/2004 10:00 a 67.5 67.5 67.5 69.9 66.8 59 52.7 0.0 2.0 SSE 0.00 29.735
08/06/2004 10:30 a 67.4 67.4 67.4 69.7 66.1 52 49.2 0.0 5.0 SSE 0.00 29.735
08/06/2004 11:00 a 67.9 67.9 67.9 68.9 67.5 55 51.2 1.0 3.0 SSE 0.01 29.731
08/06/2004 11:30 a 67.8 68.5 68.5 68.8 67.9 54 51.2 0.0 3.0 SSE 0.00 29.723
08/06/2004 12:00 p 67.6 69.1 69.1 70.7 68.4 53 51.3 0.0 3.0 S 0.00 29.718
08/06/2004 12:30 p 69.0 70.9 70.9 71.8 70.3 48 50.3 0.0 5.0 SSE 0.00 29.716
08/06/2004 1:00 p 73.0 74.5 74.5 81.5 70.3 33 43.5 0.0 3.0 SSE 0.00 29.712
08/06/2004 1:30 p 80.0 80.2 80.2 84.7 72.3 43 55.7 0.0 3.0 SSE 0.00 29.708
08/06/2004 2:00 p 77.6 78.8 78.8 83.4 72.3 33 47.3 1.0 5.0 SSE 0.00 29.705
08/06/2004 2:30 p 82.4 84.7 84.7 86.2 81.4 27 47.1 0.0 6.0 SSE 0.00 29.696
08/06/2004 3:00 p 81.0 83.3 83.3 85.7 82.3 29 47.8 1.0 6.0 SSE 0.00 29.695
08/06/2004 3:30 p 75.4 77.0 77.0 82.2 73.8 42 52.2 1.0 6.0 SSE 0.00 29.688
08/06/2004 4:00 p 71.6 72.9 72.9 73.8 72.3 43 49.1 0.0 5.0 SSE 0.01 29.690
08/06/2004 4:30 p 72.0 73.9 73.9 74.9 72.8 39 47.4 1.0 6.0 SSE 0.00 29.688
08/06/2004 5:00 p 71.6 73.0 73.0 74.6 71.5 43 49.2 1.0 6.0 SSE 0.00 29.693
08/06/2004 5:30 p 69.0 70.5 70.5 71.5 69.7 43 47.0 0.0 4.0 SSE 0.00 29.693
08/06/2004 6:00 p 68.0 69.8 69.8 70.5 69.6 43 46.3 0.0 1.0 SSE 0.00 29.696
08/06/2004 6:30 p 69.0 70.7 70.7 70.8 70.5 41 45.9 0.0 3.0 SSE 0.00 29.702
08/06/2004 7:00 p 67.0 69.2 69.2 70.6 68.0 48 48.7 0.0 4.0 SSE 0.00 29.714
08/06/2004 7:30 p 67.4 67.4 67.4 68.0 66.3 59 52.6 0.0 3.0 SSE 0.00 29.719
08/06/2004 8:00 p 65.5 65.5 65.5 66.3 64.7 58 50.3 0.0 1.0 SSE 0.00 29.729
08/06/2004 8:30 p 63.6 63.6 63.6 64.7 62.3 65 51.6 0.0 1.0 SSE 0.00 29.737
08/06/2004 9:00 p 62.6 62.6 62.6 63.0 62.1 61 49.0 0.0 1.0 SSE 0.00 29.738
08/06/2004 9:30 p 62.6 62.6 62.6 62.8 62.4 60 48.5 0.0 0.0 --- 0.00 29.746
08/06/2004 10:00 p 62.7 62.7 62.7 63.0 62.4 59 48.2 0.0 0.0 --- 0.00 29.745
08/06/2004 10:30 p 62.7 62.7 62.7 62.9 62.3 65 50.8 0.0 2.0 SSE 0.00 29.747
08/06/2004 11:00 p 61.6 61.6 61.6 62.3 61.0 71 52.1 0.0 0.0 --- 0.00 29.747
08/06/2004 11:30 p 60.6 60.6 60.6 61.0 60.1 72 51.5 0.0 0.0 --- 0.01 29.755
08/07/2004 12:00 a 60.2 60.2 60.2 60.7 59.8 71 50.8 0.0 1.0 SSE 0.00 29.755
08/07/2004 12:30 a 60.9 60.9 60.9 61.0 60.5 73 52.2 0.0 1.0 SSE 0.00 29.754
08/07/2004 1:00 a 59.2 59.2 59.2 60.4 58.0 79 52.7 0.0 0.0 --- 0.00 29.748
08/07/2004 1:30 a 57.0 57.0 57.0 58.0 56.3 84 52.2 0.0 0.0 --- 0.00 29.745
08/07/2004 2:00 a 55.8 55.8 55.8 56.3 55.4 85 51.4 0.0 0.0 --- 0.00 29.740
08/07/2004 2:30 a 55.1 55.1 55.1 55.4 54.9 87 51.3 0.0 0.0 --- 0.00 29.737
08/07/2004 3:00 a 54.3 54.3 54.3 54.9 53.7 90 51.4 0.0 0.0 --- 0.00 29.734
08/07/2004 3:30 a 53.1 53.1 53.1 53.7 52.9 93 51.1 0.0 0.0 --- 0.00 29.742
08/07/2004 4:00 a 52.8 52.8 52.8 52.9 52.6 94 51.1 0.0 0.0 --- 0.00 29.737
08/07/2004 4:30 a 52.4 52.4 52.4 52.7 52.1 95 51.0 0.0 0.0 --- 0.00 29.737
08/07/2004 5:00 a 52.5 52.5 52.5 52.8 52.1 95 51.1 0.0 0.0 --- 0.00 29.738
08/07/2004 5:30 a 53.2 53.2 53.2 53.7 52.8 93 51.2 0.0 0.0 --- 0.00 29.748
08/07/2004 6:00 a 54.1 54.1 54.1 54.4 53.6 92 51.8 0.0 0.0 --- 0.00 29.743
08/07/2004 6:30 a 55.2 55.2 55.2 56.5 54.4 82 49.8 0.0 0.0 --- 0.00 29.751
08/07/2004 7:00 a 57.1 57.1 57.1 57.6 56.5 80 51.0 0.0 2.0 SSE 0.00 29.760
08/07/2004 7:30 a 58.3 58.3 58.3 58.9 57.6 77 51.1 0.0 0.0 --- 0.00 29.772
08/07/2004 8:00 a 59.2 59.2 59.2 59.6 58.9 74 50.9 0.0 0.0 --- 0.01 29.781
08/07/2004 8:30 a 59.9 59.9 59.9 60.4 59.6 73 51.2 0.0 2.0 SSE 0.00 29.778
08/07/2004 9:00 a 60.7 60.7 60.7 61.2 60.4 72 51.6 0.0 3.0 SSE 0.00 29.786
08/07/2004 9:30 a 61.8 61.8 61.8 62.3 61.2 70 51.9 0.0 2.0 SSE 0.00 29.788
08/07/2004 10:00 a 63.1 63.1 63.1 64.2 62.3 67 52.0 0.0 2.0 SSE 0.00 29.789
08/07/2004 10:30 a 64.6 64.6 64.6 65.3 64.2 66 53.0 0.0 3.0 SSE 0.00 29.795
08/07/2004 11:00 a 66.4 66.4 66.4 67.3 65.3 61 52.6 0.0 3.0 SSE 0.00 29.792
08/07/2004 11:30 a 67.4 68.1 68.1 68.9 67.3 57 52.3 0.0 1.0 SSE 0.00 29.785
08/07/2004 12:00 p 68.6 68.5 68.5 69.0 67.7 58 53.2 0.0 6.0 SSE 0.00 29.781
08/07/2004 12:30 p 67.0 68.1 68.1 69.3 67.7 55 51.3 0.0 3.0 SSE 0.00 29.776
08/07/2004 1:00 p 69.0 70.9 70.9 72.9 69.3 49 50.8 0.0 3.0 ESE 0.00 29.779
08/07/2004 1:30 p 76.5 77.5 77.5 80.4 72.5 35 47.7 1.0 5.0 SSE 0.00 29.773
08/07/2004 2:00 p 75.2 75.6 75.6 80.2 72.0 46 53.4 0.0 4.0 SSE 0.00 29.772
08/07/2004 2:30 p 68.8 69.8 69.8 71.9 68.7 54 52.4 0.0 4.0 SSE 0.01 29.777
08/07/2004 3:00 p 67.0 68.1 68.1 68.7 67.7 55 51.3 0.0 3.0 SSE 0.00 29.780
08/07/2004 3:30 p 68.6 68.6 68.6 69.4 67.6 58 53.3 0.0 3.0 SE 0.00 29.776
08/07/2004 4:00 p 67.0 68.5 68.5 71.2 67.3 49 48.6 0.0 3.0 SE 0.00 29.778
08/07/2004 4:30 p 71.0 71.5 71.5 72.1 70.8 50 51.9 0.0 2.0 SSE 0.00 29.775
08/07/2004 5:00 p 68.4 70.3 70.3 71.8 68.9 52 51.9 0.0 5.0 SSE 0.00 29.777
08/07/2004 5:30 p 68.0 70.1 70.1 70.3 69.6 49 50.1 0.0 4.0 SSE 0.00 29.781
08/07/2004 6:00 p 67.2 68.8 68.8 69.9 67.9 51 50.0 0.0 3.0 SSE 0.00 29.784
08/07/2004 6:30 p 67.6 68.5 68.5 69.2 67.8 53 50.7 0.0 4.0 SSE 0.00 29.790
08/07/2004 7:00 p 67.4 67.4 67.4 67.9 67.1 54 50.2 0.0 3.0 SE 0.00 29.800
08/07/2004 7:30 p 66.4 66.4 66.4 67.1 65.2 59 51.7 0.0 1.0 SSE 0.00 29.811
08/07/2004 8:00 p 64.0 64.0 64.0 65.2 63.0 66 52.4 0.0 0.0 --- 0.00 29.822
08/07/2004 8:30 p 62.1 62.1 62.1 63.0 61.1 74 53.7 0.0 0.0 --- 0.01 29.826
08/07/2004 9:00 p 60.0 60.0 60.0 61.1 59.2 78 53.1 0.0 0.0 --- 0.00 29.838
08/07/2004 9:30 p 58.8 58.8 58.8 59.2 58.5 81 53.0 0.0 0.0 --- 0.00 29.850
08/07/2004 10:00 p 58.8 58.8 58.8 59.0 58.6 79 52.3 0.0 0.0 --- 0.00 29.856
08/07/2004 10:30 p 58.5 58.5 58.5 58.8 58.2 81 52.7 0.0 0.0 --- 0.00 29.862
08/07/2004 11:00 p 57.9 57.9 57.9 58.3 57.0 85 53.4 0.0 0.0 --- 0.00 29.874
08/07/2004 11:30 p 57.0 57.0 57.0 57.2 56.8 83 51.9 0.0 0.0 --- 0.00 29.875
08/08/2004 12:00 a 57.1 57.1 57.1 57.2 57.0 84 52.3 0.0 0.0 --- 0.00 29.877
08/08/2004 12:30 a 56.8 56.8 56.8 57.1 56.5 86 52.7 0.0 0.0 --- 0.00 29.886
08/08/2004 1:00 a 56.0 56.0 56.0 56.5 55.6 87 52.2 0.0 0.0 --- 0.00 29.886
08/08/2004 1:30 a 55.6 55.6 55.6 55.7 55.4 89 52.4 0.0 0.0 --- 0.00 29.882
08/08/2004 2:00 a 55.0 55.0 55.0 55.5 54.4 92 52.7 0.0 0.0 --- 0.00 29.886
08/08/2004 2:30 a 54.2 54.2 54.2 54.4 53.9 94 52.5 0.0 0.0 --- 0.00 29.880
08/08/2004 3:00 a 53.5 53.5 53.5 53.9 52.9 95 52.1 0.0 0.0 --- 0.00 29.892
08/08/2004 3:30 a 52.7 52.7 52.7 52.9 52.7 97 51.9 0.0 0.0 --- 0.00 29.893
08/08/2004 4:00 a 52.8 52.8 52.8 52.9 52.7 98 52.3 0.0 0.0 --- 0.00 29.903
08/08/2004 4:30 a 52.8 52.8 52.8 52.8 52.7 99 52.5 0.0 0.0 --- 0.00 29.906
08/08/2004 5:00 a 52.4 52.4 52.4 52.7 52.2 100 52.4 0.0 0.0 --- 0.00 29.919
08/08/2004 5:30 a 52.5 52.5 52.5 52.6 52.4 99 52.2 0.0 0.0 --- 0.00 29.925
08/08/2004 6:00 a 52.2 52.2 52.2 52.4 51.9 100 52.2 0.0 0.0 --- 0.00 29.927
08/08/2004 6:30 a 51.9 51.9 51.9 52.0 51.8 100 51.9 0.0 0.0 --- 0.00 29.935
08/08/2004 7:00 a 52.5 52.5 52.5 53.2 51.9 100 52.5 0.0 0.0 --- 0.01 29.939
08/08/2004 7:30 a 54.3 54.3 54.3 55.4 53.3 95 52.9 0.0 0.0 --- 0.00 29.945
08/08/2004 8:00 a 56.7 56.7 56.7 57.9 55.4 89 53.5 0.0 0.0 --- 0.00 29.948
08/08/2004 8:30 a 58.9 58.9 58.9 60.0 57.9 84 54.1 0.0 0.0 --- 0.00 29.945
08/08/2004 9:00 a 61.7 61.7 61.7 63.4 60.0 76 54.1 0.0 0.0 --- 0.00 29.934
08/08/2004 9:30 a 67.0 67.0 67.0 69.1 63.4 64 54.4 0.0 1.0 --- 0.00 29.931
08/08/2004 10:00 a 67.9 67.9 67.9 68.5 67.6 68 57.0 0.0 1.0 --- 0.00 29.927
08/08/2004 10:30 a 69.4 70.4 70.4 74.9 68.5 57 54.5 0.0 2.0 SW 0.00 29.923
08/08/2004 11:00 a 72.0 71.5 71.5 73.5 70.8 63 58.3 0.0 2.0 SE 0.00 29.917
08/08/2004 11:30 a 72.0 71.7 71.7 72.3 70.9 61 57.5 0.0 2.0 S 0.00 29.916
08/08/2004 12:00 p 73.0 73.1 73.1 73.8 72.3 57 57.0 0.0 4.0 SSE 0.00 29.917
08/08/2004 12:30 p 75.0 74.6 74.6 75.3 73.8 55 57.4 0.0 4.0 SSE 0.01 29.908
08/08/2004 1:00 p 80.6 81.7 81.7 89.5 75.3 33 49.8 0.0 3.0 SSE 0.00 29.903
08/08/2004 1:30 p 91.2 90.6 90.6 91.2 89.4 31 55.9 0.0 3.0 S 0.00 29.894
08/08/2004 2:00 p 88.7 89.9 89.9 91.2 88.7 29 53.4 0.0 3.0 SE 0.00 29.894
08/08/2004 2:30 p 86.8 88.0 88.0 90.4 84.6 34 56.1 0.0 3.0 SSE 0.00 29.893
08/08/2004 3:00 p 80.0 80.2 80.2 87.0 77.0 48 58.8 0.0 3.0 S 0.00 29.893
08/08/2004 3:30 p 80.0 79.7 79.7 80.8 77.3 41 53.9 0.0 3.0 SSE 0.00 29.892
08/08/2004 4:00 p 80.0 79.9 79.9 80.8 78.3 45 56.7 0.0 4.0 SSE 0.00 29.897
08/08/2004 4:30 p 80.0 79.7 79.7 80.3 78.9 45 56.5 0.0 3.0 E 0.01 29.896
08/08/2004 5:00 p 80.0 80.1 80.1 80.6 79.7 41 54.3 0.0 3.0 SSE 0.00 29.890
08/08/2004 5:30 p 79.0 79.2 79.2 79.7 78.4 47 57.3 0.0 3.0 SE 0.00 29.888
08/08/2004 6:00 p 78.0 77.5 77.5 78.4 76.7 50 57.4 0.0 2.0 SE 0.00 29.892
08/08/2004 6:30 p 76.0 76.0 76.0 76.7 75.4 52 57.1 0.0 2.0 SE 0.00 29.899
08/08/2004 7:00 p 75.0 74.7 74.7 75.4 73.8 56 58.0 0.0 1.0 SE 0.00 29.897
08/08/2004 7:30 p 73.3 72.6 72.6 73.7 71.4 63 59.3 0.0 0.0 --- 0.00 29.902
08/08/2004 8:00 p 70.0 70.3 70.3 71.4 69.3 68 59.3 0.0 1.0 --- 0.00 29.907
08/08/2004 8:30 p 69.4 68.7 68.7 69.3 68.1 72 59.3 0.0 0.0 --- 0.00 29.910
08/08/2004 9:00 p 67.4 67.4 67.4 68.1 66.8 76 59.6 0.0 0.0 --- 0.00 29.921
08/08/2004 9:30 p 66.2 66.2 66.2 66.8 65.5 79 59.5 0.0 0.0 --- 0.00 29.927
08/08/2004 10:00 p 64.8 64.8 64.8 65.5 64.4 82 59.2 0.0 0.0 --- 0.00 29.925
08/08/2004 10:30 p 64.3 64.3 64.3 64.5 64.2 82 58.7 0.0 0.0 --- 0.01 29.927
08/08/2004 11:00 p 64.7 64.7 64.7 64.8 64.5 81 58.7 0.0 0.0 --- 0.00 29.933
08/08/2004 11:30 p 65.5 65.5 65.5 66.0 64.8 80 59.2 0.0 0.0 --- 0.00 29.936
08/09/2004 12:00 a 65.9 65.9 65.9 66.0 65.8 78 58.9 0.0 0.0 --- 0.00 29.933
08/09/2004 12:30 a 66.8 66.8 66.8 67.2 66.0 72 57.5 0.0 0.0 --- 0.00 29.940
08/09/2004 1:00 a 66.4 66.4 66.4 67.1 65.5 81 60.4 0.0 0.0 --- 0.00 29.939
08/09/2004 1:30 a 64.7 64.7 64.7 65.5 63.9 83 59.4 0.0 0.0 --- 0.00 29.945
08/09/2004 2:00 a 63.7 63.7 63.7 63.9 63.2 84 58.8 0.0 0.0 --- 0.00 29.938
08/09/2004 2:30 a 62.4 62.4 62.4 63.2 61.5 89 59.1 0.0 0.0 --- 0.00 29.937
08/09/2004 3:00 a 61.2 61.2 61.2 61.5 60.8 92 58.9 0.0 0.0 --- 0.00 29.934
08/09/2004 3:30 a 60.3 60.3 60.3 60.8 60.0 94 58.6 0.0 0.0 --- 0.00 29.940
08/09/2004 4:00 a 59.8 59.8 59.8 60.0 59.7 94 58.1 0.0 0.0 --- 0.00 29.942
08/09/2004 4:30 a 59.3 59.3 59.3 59.8 59.1 95 57.9 0.0 0.0 --- 0.00 29.941
08/09/2004 5:00 a 58.7 58.7 58.7 59.1 58.4 97 57.9 0.0 0.0 --- 0.00 29.945
08/09/2004 5:30 a 58.3 58.3 58.3 58.5 58.0 98 57.7 0.0 0.0 --- 0.00 29.949
08/09/2004 6:00 a 58.0 58.0 58.0 58.0 57.8 100 58.0 0.0 0.0 --- 0.00 29.949
08/09/2004 6:30 a 57.7 57.7 57.7 57.8 57.6 100 57.7 0.0 0.0 --- 0.00 29.952
08/09/2004 7:00 a 58.1 58.1 58.1 58.6 57.8 100 58.1 0.0 0.0 --- 0.00 29.952
08/09/2004 7:30 a 59.6 59.6 59.6 60.7 58.6 97 58.8 0.0 0.0 --- 0.00 29.957
08/09/2004 8:00 a 62.4 62.4 62.4 64.0 60.7 89 59.1 0.0 0.0 --- 0.00 29.964
08/09/2004 8:30 a 65.7 65.7 65.7 67.5 64.1 78 58.7 0.0 0.0 --- 0.00 29.967
08/09/2004 9:00 a 69.4 68.8 68.8 70.3 67.5 72 59.4 0.0 0.0 --- 0.00 29.971
08/09/2004 9:30 a 73.5 73.3 73.3 75.8 70.4 65 60.8 0.0 0.0 --- 0.01 29.974
08/09/2004 10:00 a 76.0 74.6 74.6 75.5 74.4 65 62.1 0.0 1.0 SE 0.00 29.970
08/09/2004 10:30 a 76.0 76.1 76.1 80.2 74.7 56 59.3 0.0 1.0 SE 0.00 29.972
08/09/2004 11:00 a 77.6 77.3 77.3 79.3 76.7 63 63.7 0.0 1.0 SE 0.00 29.971
08/09/2004 11:30 a 79.0 77.5 77.5 78.2 76.9 60 62.5 0.0 2.0 S 0.00 29.965
08/09/2004 12:00 p 79.0 78.8 78.8 79.4 78.2 50 58.6 0.0 3.0 SSE 0.00 29.961
08/09/2004 12:30 p 80.0 80.0 80.0 81.7 79.2 47 58.0 0.0 3.0 SSE 0.00 29.958
08/09/2004 1:00 p 83.8 85.8 85.8 93.5 80.9 29 49.9 0.0 3.0 SSE 0.00 29.952
08/09/2004 1:30 p 93.8 95.4 95.4 96.1 93.5 27 56.2 0.0 4.0 SE 0.00 29.940
08/09/2004 2:00 p 91.8 93.0 93.0 96.1 88.9 27 54.1 0.0 3.0 SSE 0.00 29.935
08/09/2004 2:30 p 92.8 94.1 94.1 94.7 92.1 27 55.0 0.0 3.0 SSE 0.00 29.929
08/09/2004 3:00 p 93.0 93.4 93.4 94.5 91.3 30 57.4 0.0 4.0 SSE 0.00 29.920
08/09/2004 3:30 p 86.0 85.6 85.6 91.2 82.6 40 58.5 0.0 2.0 SW 0.01 29.914
08/09/2004 4:00 p 83.8 84.4 84.4 85.3 82.7 39 56.8 0.0 3.0 SSE 0.00 29.901
08/09/2004 4:30 p 84.6 84.7 84.7 85.0 84.1 38 56.3 0.0 3.0 SE 0.00 29.900
08/09/2004 5:00 p 83.8 83.9 83.9 84.2 82.9 39 56.3 0.0 2.0 SE 0.00 29.898
08/09/2004 5:30 p 82.4 83.0 83.0 83.3 82.5 37 54.1 0.0 4.0 SSE 0.00 29.900
08/09/2004 6:00 p 82.1 81.5 81.5 82.5 80.4 41 55.6 0.0 2.0 SSE 0.00 29.896
08/09/2004 6:30 p 80.0 79.6 79.6 80.4 78.5 42 54.5 0.0 2.0 SSE 0.00 29.899
08/09/2004 7:00 p 77.0 76.8 76.8 78.5 75.2 54 58.9 0.0 0.0 --- 0.00 29.900
08/09/2004 7:30 p 74.0 74.0 74.0 75.2 73.1 57 57.8 0.0 0.0 --- 0.00 29.903
08/09/2004 8:00 p 72.0 72.0 72.0 73.1 70.8 68 60.9 0.0 0.0 --- 0.00 29.903
08/09/2004 8:30 p 70.2 69.8 69.8 70.8 69.0 71 60.0 0.0 0.0 --- 0.00 29.909
08/09/2004 9:00 p 68.8 68.1 68.1 69.0 67.3 74 59.5 0.0 0.0 --- 0.00 29.917
08/09/2004 9:30 p 66.6 66.6 66.6 67.3 66.2 78 59.5 0.0 0.0 --- 0.00 29.919
08/09/2004 10:00 p 65.7 65.7 65.7 66.2 65.4 82 60.1 0.0 0.0 --- 0.00 29.917
08/09/2004 10:30 p 64.9 64.9 64.9 65.4 64.4 86 60.6 0.0 0.0 --- 0.00 29.919
08/09/2004 11:00 p 64.0 64.0 64.0 64.4 63.5 88 60.4 0.0 0.0 --- 0.00 29.915
08/09/2004 11:30 p 63.1 63.1 63.1 63.5 62.9 91 60.4 0.0 0.0 --- 0.00 29.910
08/10/2004 12:00 a 62.6 62.6 62.6 62.9 62.4 93 60.6 0.0 0.0 --- 0.00 29.912
08/10/2004 12:30 a 62.2 62.2 62.2 62.4 62.1 95 60.8 0.0 0.0 --- 0.00 29.913
08/10/2004 1:00 a 61.9 61.9 61.9 62.1 61.6 96 60.8 0.0 0.0 --- 0.00 29.910
08/10/2004 1:30 a 61.6 61.6 61.6 61.7 61.4 96 60.5 0.0 0.0 --- 0.00 29.903
08/10/2004 2:00 a 61.5 61.5 61.5 61.6 61.2 98 60.9 0.0 0.0 --- 0.01 29.898
08/10/2004 2:30 a 61.0 61.0 61.0 61.2 60.7 99 60.7 0.0 0.0 --- 0.00 29.897
08/10/2004 3:00 a 60.5 60.5 60.5 60.7 60.3 100 60.5 0.0 0.0 --- 0.00 29.895
08/10/2004 3:30 a 60.3 60.3 60.3 60.4 60.3 100 60.3 0.0 0.0 --- 0.00 29.888
08/10/2004 4:00 a 60.3 60.3 60.3 60.4 60.2 100 60.3 0.0 0.0 --- 0.00 29.886
08/10/2004 4:30 a 60.2 60.2 60.2 60.3 60.2 100 60.2 0.0 0.0 --- 0.00 29.889
08/10/2004 5:00 a 60.5 60.5 60.5 60.8 60.3 100 60.5 0.0 0.0 --- 0.00 29.890
08/10/2004 5:30 a 61.0 61.0 61.0 61.1 60.8 100 61.0 0.0 0.0 --- 0.00 29.887
08/10/2004 6:00 a 61.0 61.0 61.0 61.2 61.0 100 61.0 0.0 0.0 --- 0.00 29.886
08/10/2004 6:30 a 60.8 60.8 60.8 61.0 60.8 100 60.8 0.0 0.0 --- 0.00 29.880
08/10/2004 7:00 a 61.4 61.4 61.4 62.0 60.9 100 61.4 0.0 0.0 --- 0.00 29.886
08/10/2004 7:30 a 62.7 62.7 62.7 63.7 62.0 96 61.5 0.0 0.0 --- 0.00 29.878
08/10/2004 8:00 a 64.5 64.5 64.5 65.3 63.7 94 62.7 0.0 0.0 --- 0.00 29.883
08/10/2004 8:30 a 66.8 66.8 66.8 68.4 65.3 90 63.8 0.0 0.0 --- 0.00 29.886
08/10/2004 9:00 a 72.0 69.8 69.8 71.7 68.4 84 64.8 0.0 0.0 --- 0.00 29.885
08/10/2004 9:30 a 77.0 74.7 74.7 78.1 71.8 70 64.3 0.0 0.0 --- 0.00 29.883
08/10/2004 10:00 a 79.6 76.8 76.8 78.0 76.2 73 67.5 0.0 0.0 --- 0.00 29.876
08/10/2004 10:30 a 79.6 77.9 77.9 80.5 76.8 66 65.6 0.0 0.0 --- 0.00 29.867
08/10/2004 11:00 a 82.5 80.0 80.0 80.5 79.7 65 67.2 0.0 3.0 SE 0.00 29.857
08/10/2004 11:30 a 83.2 80.7 80.7 81.2 79.9 61 66.0 0.0 3.0 N 0.00 29.851
08/10/2004 12:00 p 83.7 82.1 82.1 83.2 81.2 57 65.4 0.0 3.0 N 0.00 29.841
08/10/2004 12:30 p 86.5 83.6 83.6 84.0 83.2 55 65.7 0.0 2.0 NW 0.00 29.833
08/10/2004 1:00 p 86.0 84.0 84.0 86.7 83.4 50 63.4 0.0 4.0 NW 0.01 29.822
08/10/2004 1:30 p 94.3 88.8 88.8 92.5 86.0 51 68.4 0.0 2.0 S 0.00 29.808
08/10/2004 2:00 p 88.9 85.6 85.6 86.5 84.8 53 66.5 0.0 3.0 S 0.00 29.803
08/10/2004 2:30 p 92.9 89.7 89.7 92.3 85.2 43 64.2 0.0 3.0 SSW 0.00 29.789
08/10/2004 3:00 p 92.6 87.7 87.7 90.9 85.5 52 67.9 0.0 3.0 NNW 0.00 29.784
08/10/2004 3:30 p 88.9 86.0 86.0 87.3 84.5 53 66.9 0.0 4.0 N 0.00 29.772
08/10/2004 4:00 p 88.0 86.0 86.0 86.8 84.5 50 65.2 0.0 4.0 N 0.00 29.767
08/10/2004 4:30 p 87.4 85.0 85.0 85.4 84.5 52 65.4 0.0 3.0 N 0.00 29.753
08/10/2004 5:00 p 87.6 85.4 85.4 85.9 84.6 53 66.3 0.0 3.0 WSW 0.00 29.747
08/10/2004 5:30 p 86.4 84.4 84.4 85.1 83.5 54 66.0 0.0 3.0 SSW 0.00 29.747
08/10/2004 6:00 p 83.9 82.0 82.0 83.5 81.3 59 66.3 0.0 3.0 NNW 0.00 29.749
08/10/2004 6:30 p 83.0 81.0 81.0 81.3 80.7 60 65.8 0.0 3.0 SSW 0.00 29.743
08/10/2004 7:00 p 84.0 80.6 80.6 81.2 79.9 65 67.8 0.0 2.0 NNE 0.00 29.759
08/10/2004 7:30 p 81.0 79.3 79.3 79.9 78.8 67 67.4 0.0 4.0 NE 0.00 29.760
08/10/2004 8:00 p 79.8 78.2 78.2 78.8 77.7 68 66.8 0.0 3.0 NE 0.00 29.764
08/10/2004 8:30 p 79.2 77.2 77.2 77.7 76.6 71 67.1 0.0 1.0 NW 0.00 29.769
08/10/2004 9:00 p 78.2 76.3 76.3 76.6 75.8 72 66.6 0.0 2.0 NW 0.00 29.779
08/10/2004 9:30 p 77.0 75.4 75.4 75.8 74.9 74 66.5 0.0 1.0 W 0.00 29.777
08/10/2004 10:00 p 77.0 74.6 74.6 74.9 74.3 75 66.2 0.0 1.0 --- 0.00 29.770
08/10/2004 10:30 p 76.0 74.0 74.0 74.3 73.8 77 66.3 0.0 1.0 W 0.00 29.770
08/10/2004 11:00 p 76.0 73.6 73.6 73.8 73.3 78 66.3 0.0 1.0 W 0.00 29.754
08/10/2004 11:30 p 74.9 73.0 73.0 73.3 72.9 79 66.1 0.0 0.0 --- 0.00 29.752
08/11/2004 12:00 a 75.0 72.6 72.6 72.9 72.1 82 66.8 0.0 0.0 --- 0.00 29.767
08/11/2004 12:30 a 74.0 71.6 71.6 72.1 71.4 84 66.5 0.0 0.0 --- 0.00 29.772
08/11/2004 1:00 a 73.0 71.4 71.4 71.6 71.2 84 66.3 0.0 0.0 --- 0.00 29.765
08/11/2004 1:30 a 73.0 71.0 71.0 71.3 70.9 85 66.3 0.0 1.0 WSW 0.00 29.763
08/11/2004 2:00 a 73.0 70.7 70.7 71.0 70.4 86 66.3 0.0 2.0 SW 0.00 29.747
08/11/2004 2:30 a 72.0 70.2 70.2 70.4 69.7 89 66.8 0.0 0.0 --- 0.00 29.747
08/11/2004 3:00 a 72.0 69.8 69.8 70.0 69.6 89 66.4 0.0 0.0 --- 0.00 29.746
08/11/2004 3:30 a 71.1 69.4 69.4 69.8 69.1 91 66.7 0.0 0.0 --- 0.01 29.748
08/11/2004 4:00 a 71.3 68.8 68.8 69.1 68.5 93 66.7 0.0 0.0 --- 0.00 29.746
08/11/2004 4:30 a 70.0 68.1 68.1 68.5 67.8 95 66.6 0.0 0.0 --- 0.00 29.746
08/11/2004 5:00 a 67.5 67.5 67.5 67.9 67.4 98 66.9 0.0 0.0 --- 0.00 29.747
08/11/2004 5:30 a 67.6 67.6 67.6 67.8 67.5 98 67.0 0.0 0.0 --- 0.00 29.755
08/11/2004 6:00 a 67.7 67.7 67.7 67.8 67.7 100 67.7 0.0 0.0 --- 0.00 29.756
08/11/2004 6:30 a 67.8 67.8 67.8 67.9 67.7 100 67.8 0.0 0.0 --- 0.00 29.761
08/11/2004 7:00 a 70.0 68.2 68.2 68.6 67.9 100 68.2 0.0 0.0 --- 0.00 29.768
08/11/2004 7:30 a 71.4 69.4 69.4 70.6 68.6 94 67.6 0.0 0.0 --- 0.00 29.770
08/11/2004 8:00 a 74.0 71.7 71.7 72.6 70.6 89 68.3 0.0 1.0 S 0.00 29.771
08/11/2004 8:30 a 75.0 72.9 72.9 73.5 72.6 87 68.8 0.0 0.0 --- 0.00 29.770
08/11/2004 9:00 a 76.0 73.9 73.9 74.6 73.5 85 69.1 0.0 2.0 SSW 0.00 29.769
08/11/2004 9:30 a 78.8 75.6 75.6 77.5 74.6 78 68.3 0.0 0.0 --- 0.00 29.767
08/11/2004 10:00 a 81.4 77.7 77.7 78.2 77.3 77 69.9 0.0 2.0 SSE 0.00 29.758
08/11/2004 10:30 a 81.8 78.8 78.8 79.6 78.2 74 69.8 0.0 1.0 SSE 0.00 29.761
08/11/2004 11:00 a 83.6 79.9 79.9 80.4 79.4 73 70.5 0.0 2.0 SSE 0.00 29.762
08/11/2004 11:30 a 83.8 80.0 80.0 80.5 79.6 74 71.0 0.0 1.0 --- 0.00 29.756
08/11/2004 12:00 p 85.2 81.4 81.4 81.8 80.5 71 71.1 0.0 3.0 NNE 0.00 29.757
08/11/2004 12:30 p 85.8 82.3 82.3 83.6 81.7 66 69.8 0.0 3.0 NNE 0.00 29.739
08/11/2004 1:00 p 91.5 86.8 86.8 90.1 83.6 55 68.7 0.0 2.0 ENE 0.00 29.726
08/11/2004 1:30 p 95.4 87.4 87.4 90.6 83.0 66 74.7 0.0 3.0 NE 0.00 29.736
08/11/2004 2:00 p 82.9 80.2 80.2 82.9 76.8 69 69.1 0.0 5.0 SSE 0.00 29.763
08/11/2004 2:30 p 78.2 76.8 76.8 80.2 74.3 66 64.6 0.0 3.0 SSE 0.00 29.732
08/11/2004 3:00 p 85.4 83.0 83.0 85.2 78.8 61 68.2 0.0 2.0 SSE 0.00 29.713
08/11/2004 3:30 p 88.2 82.5 82.5 84.7 80.8 68 70.9 0.0 2.0 ENE 0.00 29.719
08/11/2004 4:00 p 84.4 81.4 81.4 81.7 81.0 67 69.4 0.0 2.0 SE 0.00 29.738
08/11/2004 4:30 p 85.4 80.5 80.5 81.8 78.4 72 70.6 0.0 2.0 SE 0.00 29.747
08/11/2004 5:00 p 79.8 76.9 76.9 78.4 76.4 74 68.0 0.0 0.0 --- 0.00 29.732
08/11/2004 5:30 p 79.0 76.1 76.1 76.5 75.9 80 69.5 0.0 1.0 SE 0.00 29.747
08/11/2004 6:00 p 79.1 76.1 76.1 76.9 75.8 81 69.9 0.0 2.0 SE 0.00 29.754
08/11/2004 6:30 p 81.0 76.7 76.7 77.1 76.3 83 71.2 0.0 1.0 --- 0.00 29.754
08/11/2004 7:00 p 77.0 73.4 73.4 76.3 71.1 100 73.4 0.0 2.0 NNE 0.00 29.753
08/11/2004 7:30 p 75.0 70.5 70.5 71.1 68.9 100 70.5 0.0 3.0 NNE 0.01 29.805
08/11/2004 8:00 p 67.7 67.7 67.7 68.9 67.2 100 67.7 0.0 2.0 SSW 0.00 29.805
08/11/2004 8:30 p 67.4 67.4 67.4 67.9 67.1 100 67.4 0.0 2.0 SW 0.00 29.809
08/11/2004 9:00 p 67.1 67.1 67.1 67.4 67.0 100 67.1 0.0 0.0 --- 0.00 29.808
08/11/2004 9:30 p 67.4 67.4 67.4 67.6 67.0 100 67.4 0.0 2.0 SW 0.00 29.820
08/11/2004 10:00 p 67.7 67.7 67.7 67.9 67.5 100 67.7 0.0 0.0 --- 0.00 29.816
08/11/2004 10:30 p 67.5 67.5 67.5 67.8 67.1 100 67.5 0.0 0.0 --- 0.00 29.815
08/11/2004 11:00 p 67.0 67.0 67.0 67.1 66.8 100 67.0 0.0 0.0 --- 0.00 29.804
08/11/2004 11:30 p 66.9 66.9 66.9 66.9 66.8 100 66.9 0.0 0.0 --- 0.00 29.792
08/12/2004 12:00 a 66.8 66.8 66.8 67.0 66.6 100 66.8 0.0 0.0 --- 0.00 29.796
08/12/2004 12:30 a 66.6 66.6 66.6 66.7 66.5 100 66.6 0.0 0.0 --- 0.00 29.798
08/12/2004 1:00 a 66.7 66.7 66.7 67.0 66.6 100 66.7 0.0 0.0 --- 0.00 29.799
08/12/2004 1:30 a 67.2 67.2 67.2 67.4 67.0 100 67.2 0.0 0.0 --- 0.00 29.798
08/12/2004 2:00 a 67.4 67.4 67.4 67.5 67.2 100 67.4 0.0 0.0 --- 0.00 29.788
08/12/2004 2:30 a 67.7 67.7 67.7 67.9 67.5 100 67.7 0.0 0.0 --- 0.00 29.786
08/12/2004 3:00 a 70.0 68.0 68.0 68.1 67.9 100 68.0 0.0 0.0 --- 0.00 29.789
08/12/2004 3:30 a 70.0 68.0 68.0 68.1 67.9 100 68.0 0.0 0.0 --- 0.00 29.792
08/12/2004 4:00 a 70.0 68.1 68.1 68.2 68.0 100 68.1 0.0 0.0 --- 0.00 29.794
08/12/2004 4:30 a 70.0 68.3 68.3 68.3 68.2 100 68.3 0.0 0.0 --- 0.00 29.794
08/12/2004 5:00 a 70.0 68.1 68.1 68.2 68.0 100 68.1 0.0 0.0 --- 0.01 29.793
08/12/2004 5:30 a 70.0 68.0 68.0 68.2 67.9 100 68.0 0.0 0.0 --- 0.00 29.801
08/12/2004 6:00 a 70.0 68.0 68.0 68.3 67.8 100 68.0 0.0 0.0 --- 0.00 29.809
08/12/2004 6:30 a 72.0 68.5 68.5 68.8 68.3 100 68.5 0.0 0.0 --- 0.00 29.812
08/12/2004 7:00 a 72.0 69.0 69.0 69.2 68.8 100 69.0 0.0 0.0 --- 0.00 29.819
08/12/2004 7:30 a 74.0 69.5 69.5 70.0 69.2 100 69.5 0.0 0.0 --- 0.00 29.823
08/12/2004 8:00 a 75.0 70.6 70.6 71.2 70.0 100 70.6 0.0 0.0 --- 0.00 29.824
08/12/2004 8:30 a 75.0 71.4 71.4 71.5 71.2 100 71.4 0.0 0.0 --- 0.00 29.827
08/12/2004 9:00 a 76.0 72.3 72.3 72.6 71.5 100 72.3 0.0 2.0 SW 0.00 29.828
08/12/2004 9:30 a 77.0 73.4 73.4 73.9 72.4 100 73.4 0.0 0.0 --- 0.00 29.827
08/12/2004 10:00 a 78.0 74.1 74.1 74.2 73.8 100 74.1 0.0 1.0 SW 0.00 29.830
08/12/2004 10:30 a 79.0 74.7 74.7 75.7 74.1 100 74.7 0.0 2.0 SW 0.00 29.829
08/12/2004 11:00 a 79.0 75.2 75.2 76.0 74.8 100 75.2 0.0 0.0 --- 0.01 29.828
08/12/2004 11:30 a 80.0 76.3 76.3 77.7 74.8 100 76.3 0.0 1.0 SW 0.00 29.828
08/12/2004 12:00 p 87.0 78.5 78.5 79.3 77.7 100 78.5 0.0 2.0 SW 0.00 29.817
08/12/2004 12:30 p 87.0 78.8 78.8 79.5 77.9 100 78.8 0.0 2.0 SW 0.00 29.814
08/12/2004 1:00 p 77.0 73.4 73.4 77.9 69.3 100 73.4 1.0 5.0 SSE 0.00 29.809
08/12/2004 1:30 p 75.0 70.9 70.9 72.3 69.5 100 70.9 0.0 3.0 SSE 0.00 29.798
08/12/2004 2:00 p 78.0 73.8 73.8 75.3 72.3 100 73.8 0.0 0.0 --- 0.00 29.789
08/12/2004 2:30 p 79.0 75.3 75.3 76.4 74.6 100 75.3 0.0 2.0 ESE 0.00 29.781
08/12/2004 3:00 p 82.0 76.7 76.7 77.8 76.1 100 76.7 0.0 3.0 N 0.00 29.787
08/12/2004 3:30 p 82.0 76.5 76.5 77.1 76.0 100 76.5 1.0 4.0 N 0.00 29.781
08/12/2004 4:00 p 82.0 76.8 76.8 77.0 76.5 100 76.8 0.0 4.0 N 0.00 29.776
08/12/2004 4:30 p 82.0 76.8 76.8 77.9 76.5 100 76.8 1.0 4.0 N 0.01 29.776
08/12/2004 5:00 p 84.0 78.1 78.1 78.6 77.6 100 78.1 0.0 6.0 NNE 0.00 29.779
08/12/2004 5:30 p 84.0 78.3 78.3 78.6 77.9 100 78.3 1.0 5.0 NNE 0.00 29.768
08/12/2004 6:00 p 81.0 77.4 77.4 77.9 77.2 84 72.2 1.0 4.0 N 0.00 29.779
08/12/2004 6:30 p 81.0 76.6 76.6 77.3 76.1 87 72.4 1.0 4.0 N 0.00 29.789
08/12/2004 7:00 p 79.4 75.8 75.8 76.2 75.5 84 70.6 0.0 3.0 N 0.00 29.800
08/12/2004 7:30 p 77.6 75.2 75.2 75.5 74.8 86 70.7 0.0 2.0 NE 0.00 29.801
08/12/2004 8:00 p 77.8 74.5 74.5 74.8 74.0 88 70.7 0.0 2.0 NE 0.00 29.804
08/12/2004 8:30 p 76.0 73.8 73.8 74.0 73.5 89 70.4 0.0 1.0 NE 0.01 29.806
08/12/2004 9:00 p 75.0 73.3 73.3 73.5 73.2 89 69.9 0.0 0.0 --- 0.00 29.812
08/12/2004 9:30 p 75.0 73.3 73.3 73.4 73.2 89 69.9 0.0 1.0 --- 0.00 29.822
08/12/2004 10:00 p 75.0 73.2 73.2 73.2 73.1 89 69.8 0.0 1.0 --- 0.00 29.817
08/12/2004 10:30 p 75.0 73.0 73.0 73.1 72.9 90 69.9 0.0 0.0 --- 0.00 29.809
08/12/2004 11:00 p 75.6 72.7 72.7 72.9 72.4 93 70.6 0.0 0.0 --- 0.00 29.803
08/12/2004 11:30 p 75.6 72.5 72.5 72.7 72.3 93 70.4 0.0 0.0 --- 0.00 29.796
08/13/2004 12:00 a 75.6 72.8 72.8 72.9 72.6 93 70.7 0.0 2.0 NE 0.00 29.783
08/13/2004 12:30 a 75.6 72.6 72.6 72.7 72.5 93 70.5 0.0 2.0 NE 0.00 29.782
08/13/2004 1:00 a 75.6 72.6 72.6 72.7 72.5 93 70.5 0.0 2.0 NE 0.00 29.765
08/13/2004 1:30 a 75.0 72.1 72.1 72.5 71.8 95 70.6 0.0 0.0 --- 0.00 29.765
08/13/2004 2:00 a 76.0 72.0 72.0 72.2 71.9 100 72.0 0.0 1.0 NE 0.00 29.755
08/13/2004 2:30 a 76.0 71.5 71.5 72.0 71.3 100 71.5 0.0 1.0 NE 0.00 29.746
08/13/2004 3:00 a 75.0 71.2 71.2 71.3 71.1 100 71.2 0.0 1.0 NE 0.01 29.736
08/13/2004 3:30 a 75.0 71.2 71.2 71.3 71.1 100 71.2 0.0 0.0 --- 0.00 29.724
08/13/2004 4:00 a 75.0 71.4 71.4 71.6 71.2 100 71.4 0.0 1.0 --- 0.00 29.720
08/13/2004 4:30 a 76.0 71.7 71.7 71.8 71.6 100 71.7 0.0 2.0 NE 0.00 29.713
08/13/2004 5:00 a 76.0 71.8 71.8 71.8 71.7 100 71.8 0.0 1.0 --- 0.00 29.717
08/13/2004 5:30 a 76.0 71.9 71.9 72.0 71.8 100 71.9 0.0 1.0 NE 0.00 29.711
08/13/2004 6:00 a 76.0 72.1 72.1 72.1 72.0 100 72.1 0.0 1.0 --- 0.00 29.714
08/13/2004 6:30 a 76.0 72.2 72.2 72.3 72.1 100 72.2 0.0 2.0 NE 0.00 29.725
08/13/2004 7:00 a 77.0 72.6 72.6 72.8 72.3 100 72.6 0.0 2.0 NE 0.00 29.726
08/13/2004 7:30 a 77.0 73.3 73.3 73.6 72.8 100 73.3 0.0 2.0 NE 0.01 29.738
08/13/2004 8:00 a 78.0 73.9 73.9 74.2 73.6 100 73.9 0.0 1.0 --- 0.00 29.735
08/13/2004 8:30 a 79.0 74.7 74.7 75.2 74.2 100 74.7 0.0 2.0 SW 0.00 29.734
08/13/2004 9:00 a 79.0 75.1 75.1 75.3 74.9 100 75.1 0.0 2.0 SSW 0.00 29.737
08/13/2004 9:30 a 80.0 75.5 75.5 76.0 75.1 100 75.5 0.0 0.0 --- 0.00 29.731
08/13/2004 10:00 a 81.5 76.5 76.5 76.7 76.0 95 75.0 0.0 2.0 WNW 0.00 29.746
08/13/2004 10:30 a 81.4 76.8 76.8 77.1 76.4 94 74.9 0.0 2.0 WNW 0.00 29.755
08/13/2004 11:00 a 81.0 77.2 77.2 77.9 76.7 90 74.0 0.0 2.0 N 0.00 29.758
08/13/2004 11:30 a 82.9 77.7 77.7 78.2 77.1 89 74.2 0.0 2.0 N 0.00 29.757
08/13/2004 12:00 p 81.0 77.0 77.0 77.7 76.8 88 73.2 0.0 3.0 N 0.00 29.757
08/13/2004 1:00 p 82.1 77.7 77.7 78.0 77.6 81 71.4 0.0 3.0 N 0.00 29.765
08/13/2004 1:30 p 81.4 78.1 78.1 78.7 77.5 77 70.3 0.0 2.0 NNE 0.00 29.767
08/13/2004 2:00 p 81.8 78.3 78.3 78.5 78.2 79 71.3 0.0 2.0 W 0.00 29.773
08/13/2004 2:30 p 82.5 78.3 78.3 78.7 77.4 85 73.4 0.0 1.0 W 0.01 29.776
08/13/2004 3:00 p 81.0 76.9 76.9 77.7 76.3 88 73.1 0.0 1.0 --- 0.00 29.769
08/13/2004 3:30 p 82.2 78.6 78.6 80.7 77.7 76 70.4 0.0 2.0 S 0.00 29.760
08/13/2004 4:00 p 85.6 80.5 80.5 80.8 80.1 73 71.1 0.0 0.0 --- 0.00 29.759
08/13/2004 4:30 p 83.8 79.9 79.9 80.3 79.4 74 70.9 0.0 0.0 --- 0.00 29.761
08/13/2004 5:00 p 81.6 78.4 78.4 79.4 77.4 78 71.0 0.0 1.0 S 0.00 29.770
08/13/2004 5:30 p 81.6 77.7 77.7 77.8 77.4 78 70.3 0.0 1.0 --- 0.00 29.770
08/13/2004 6:00 p 81.0 77.0 77.0 77.7 76.4 83 71.4 0.0 0.0 --- 0.00 29.782
08/13/2004 6:30 p 80.6 77.1 77.1 77.8 76.3 78 69.7 0.0 1.0 SE 0.01 29.781
08/13/2004 7:00 p 79.2 76.0 76.0 76.7 75.7 82 70.1 0.0 1.0 SE 0.00 29.787
08/13/2004 7:30 p 77.7 74.8 74.8 75.7 73.9 87 70.7 0.0 0.0 --- 0.00 29.783
08/13/2004 8:00 p 75.4 73.1 73.1 73.9 72.5 92 70.6 0.0 0.0 --- 0.00 29.789
08/13/2004 8:30 p 74.6 72.1 72.1 72.5 71.7 93 70.0 0.0 0.0 --- 0.00 29.794
08/13/2004 9:00 p 74.4 71.7 71.7 71.8 71.6 92 69.3 0.0 0.0 --- 0.00 29.810
08/13/2004 9:30 p 74.0 71.7 71.7 71.8 71.4 90 68.6 0.0 0.0 --- 0.00 29.819
08/13/2004 10:00 p 73.8 70.8 70.8 71.4 70.2 94 69.0 0.0 0.0 --- 0.00 29.831
08/13/2004 10:30 p 73.2 69.9 69.9 70.2 69.6 96 68.7 0.0 0.0 --- 0.00 29.834
08/13/2004 11:00 p 72.0 69.1 69.1 69.6 68.8 100 69.1 0.0 0.0 --- 0.00 29.840
08/13/2004 11:30 p 72.0 68.6 68.6 68.8 68.4 100 68.6 0.0 0.0 --- 0.00 29.848
08/14/2004 12:00 a 72.0 68.5 68.5 68.5 68.4 100 68.5 0.0 0.0 --- 0.00 29.848
08/14/2004 12:30 a 70.0 68.4 68.4 68.5 68.3 100 68.4 0.0 0.0 --- 0.00 29.859
08/14/2004 1:00 a 70.0 68.2 68.2 68.4 68.1 100 68.2 0.0 0.0 --- 0.00 29.861
08/14/2004 1:30 a 70.0 68.0 68.0 68.1 67.8 100 68.0 0.0 0.0 --- 0.01 29.867
08/14/2004 2:00 a 67.8 67.8 67.8 67.9 67.7 100 67.8 0.0 0.0 --- 0.00 29.878
08/14/2004 2:30 a 67.5 67.5 67.5 67.7 67.3 100 67.5 0.0 0.0 --- 0.00 29.885
08/14/2004 3:00 a 67.3 67.3 67.3 67.5 67.2 100 67.3 0.0 0.0 --- 0.00 29.901
08/14/2004 3:30 a 67.0 67.0 67.0 67.2 66.8 100 67.0 0.0 0.0 --- 0.00 29.904
08/14/2004 4:00 a 66.8 66.8 66.8 66.9 66.8 100 66.8 0.0 0.0 --- 0.00 29.903
08/14/2004 4:30 a 66.6 66.6 66.6 66.8 66.4 100 66.6 0.0 0.0 --- 0.00 29.905
08/14/2004 5:00 a 66.3 66.3 66.3 66.4 66.2 100 66.3 0.0 0.0 --- 0.00 29.908
08/14/2004 5:30 a 66.3 66.3 66.3 66.5 66.3 100 66.3 0.0 0.0 --- 0.00 29.921
08/14/2004 6:00 a 66.6 66.6 66.6 66.6 66.5 100 66.6 0.0 0.0 --- 0.00 29.927
08/14/2004 6:30 a 66.7 66.7 66.7 66.9 66.6 100 66.7 0.0 0.0 --- 0.00 29.935
08/14/2004 7:00 a 67.1 67.1 67.1 67.4 66.9 100 67.1 0.0 0.0 --- 0.01 29.949
08/14/2004 7:30 a 70.0 68.0 68.0 68.6 67.4 100 68.0 0.0 0.0 --- 0.00 29.950
08/14/2004 8:00 a 71.2 69.1 69.1 69.6 68.6 92 66.7 0.0 0.0 --- 0.00 29.959
08/14/2004 8:30 a 72.2 69.8 69.8 70.0 69.6 91 67.1 0.0 0.0 --- 0.00 29.973
08/14/2004 9:00 a 72.0 70.4 70.4 71.1 69.9 87 66.4 0.0 0.0 --- 0.00 29.971
08/14/2004 9:30 a 74.0 72.0 72.0 72.7 71.0 80 65.5 0.0 0.0 --- 0.00 29.987
08/14/2004 10:00 a 75.0 72.6 72.6 72.7 72.4 80 66.1 0.0 0.0 --- 0.00 30.000
08/14/2004 10:30 a 75.0 73.1 73.1 73.4 72.5 81 66.9 0.0 0.0 --- 0.00 30.005
08/14/2004 11:00 a 76.0 73.8 73.8 75.8 73.0 76 65.8 0.0 0.0 --- 0.00 30.011
08/14/2004 11:30 a 77.0 75.4 75.4 75.9 75.0 73 66.2 0.0 0.0 --- 0.00 30.011
08/14/2004 12:00 p 78.2 75.8 75.8 76.0 75.7 72 66.1 0.0 0.0 --- 0.00 30.014
08/14/2004 12:30 p 77.6 76.1 76.1 78.2 75.0 68 64.8 0.0 0.0 --- 0.00 30.022
08/14/2004 1:00 p 81.8 80.7 80.7 85.4 78.2 54 62.5 0.0 2.0 NE 0.00 30.017
08/14/2004 1:30 p 89.4 84.0 84.0 86.3 80.3 66 71.4 0.0 3.0 NE 0.01 30.018
08/14/2004 2:00 p 81.0 78.5 78.5 80.3 77.2 69 67.5 0.0 0.0 --- 0.00 30.022
08/14/2004 2:30 p 79.6 77.2 77.2 77.5 76.9 73 67.9 0.0 0.0 --- 0.00 30.026
08/14/2004 3:00 p 78.4 76.2 76.2 76.9 75.8 74 67.3 0.0 0.0 --- 0.00 30.025
08/14/2004 3:30 p 76.0 73.7 73.7 76.2 72.6 87 69.6 0.0 0.0 --- 0.00 30.022
08/14/2004 4:00 p 78.1 75.7 75.7 77.6 73.0 71 65.6 0.0 0.0 --- 0.00 30.012
08/14/2004 4:30 p 79.6 77.1 77.1 77.3 76.7 73 67.8 0.0 0.0 --- 0.00 30.020
08/14/2004 5:00 p 78.8 76.1 76.1 76.7 75.6 78 68.7 0.0 0.0 --- 0.00 30.018
08/14/2004 5:30 p 77.1 75.2 75.2 75.6 75.0 81 69.0 0.0 0.0 --- 0.80 30.022
08/14/2004 6:00 p 77.2 74.6 74.6 75.1 73.6 82 68.7 0.0 0.0 --- 0.00 30.033
08/14/2004 6:30 p 75.0 73.1 73.1 73.6 72.6 88 69.3 0.0 0.0 --- 0.00 30.044
08/14/2004 7:00 p 74.0 72.2 72.2 72.6 72.1 88 68.5 0.0 0.0 --- 0.00 30.031
08/14/2004 7:30 p 74.0 72.2 72.2 72.2 72.0 87 68.1 0.0 0.0 --- 0.00 30.023
08/14/2004 8:00 p 74.2 71.6 71.6 72.1 71.2 91 68.8 0.0 0.0 --- 0.00 30.018
08/14/2004 8:30 p 73.0 71.0 71.0 71.2 70.9 90 67.9 0.0 0.0 --- 0.00 30.022
08/14/2004 9:00 p 75.0 70.7 70.7 71.0 70.0 100 70.7 0.0 0.0 --- 0.00 30.028
08/14/2004 9:30 p 74.0 69.7 69.7 70.0 69.6 100 69.7 0.0 0.0 --- 0.00 30.032
08/14/2004 10:00 p 74.0 69.8 69.8 69.9 69.7 100 69.8 0.0 0.0 --- 0.00 30.012
08/14/2004 10:30 p 74.0 70.0 70.0 70.0 69.9 100 70.0 0.0 0.0 --- 0.00 30.018
08/14/2004 11:00 p 74.0 70.0 70.0 70.0 69.9 100 70.0 0.0 0.0 --- 0.03 30.019
08/14/2004 11:30 p 74.0 70.0 70.0 70.0 69.9 100 70.0 0.0 2.0 NE 0.05 30.010
08/15/2004 12:00 a 74.0 69.9 69.9 70.0 69.6 100 69.9 0.0 1.0 --- 0.04 30.000
08/15/2004 12:30 a 72.0 69.2 69.2 69.6 69.0 100 69.2 0.0 1.0 NE 0.03 30.009
08/15/2004 1:00 a 72.0 69.1 69.1 69.1 69.0 100 69.1 0.0 1.0 --- 0.02 30.004
08/15/2004 1:30 a 70.0 68.1 68.1 69.1 66.8 100 68.1 0.0 3.0 N 0.04 30.009
08/15/2004 2:00 a 66.6 66.6 66.6 66.8 66.5 100 66.6 0.0 1.0 N 0.05 30.012
08/15/2004 2:30 a 66.9 66.9 66.9 67.0 66.8 100 66.9 0.0 2.0 N 0.04 30.012
08/15/2004 3:00 a 66.8 66.8 66.8 66.9 66.7 100 66.8 0.0 0.0 --- 0.03 30.007
08/15/2004 3:30 a 66.8 66.8 66.8 66.8 66.7 100 66.8 0.0 0.0 --- 0.02 29.996
08/15/2004 4:00 a 66.7 66.7 66.7 66.8 66.7 100 66.7 0.0 0.0 --- 0.01 29.993
08/15/2004 4:30 a 66.8 66.8 66.8 66.9 66.7 100 66.8 0.0 0.0 --- 0.00 29.996
08/15/2004 5:00 a 66.9 66.9 66.9 67.0 66.8 100 66.9 0.0 0.0 --- 0.00 29.997
08/15/2004 5:30 a 67.0 67.0 67.0 67.1 67.0 100 67.0 0.0 0.0 --- 0.00 30.008
08/15/2004 6:00 a 66.9 66.9 66.9 67.0 66.8 100 66.9 0.0 0.0 --- 0.00 30.013
08/15/2004 6:30 a 66.9 66.9 66.9 67.0 66.7 100 66.9 0.0 0.0 --- 0.00 30.028
08/15/2004 7:00 a 67.1 67.1 67.1 67.3 67.0 100 67.1 0.0 0.0 --- 0.00 30.044
08/15/2004 7:30 a 67.7 67.7 67.7 68.0 67.3 100 67.7 0.0 0.0 --- 0.00 30.048
08/15/2004 8:00 a 70.0 68.0 68.0 68.1 67.8 100 68.0 0.0 0.0 --- 0.00 30.056
08/15/2004 8:30 a 72.0 68.6 68.6 69.7 68.1 100 68.6 0.0 2.0 N 0.00 30.061
08/15/2004 9:00 a 74.0 70.1 70.1 70.4 69.7 100 70.1 0.0 0.0 --- 0.00 30.069
08/15/2004 9:30 a 74.0 69.5 69.5 69.9 69.2 100 69.5 0.0 0.0 --- 0.00 30.076
08/15/2004 10:00 a 72.0 69.3 69.3 69.4 69.1 100 69.3 0.0 0.0 --- 0.00 30.080
08/15/2004 10:30 a 72.0 69.4 69.4 69.6 69.3 100 69.4 0.0 0.0 --- 0.00 30.085
08/15/2004 11:00 a 74.0 70.3 70.3 70.8 69.6 100 70.3 0.0 0.0 --- 0.00 30.082
08/15/2004 11:30 a 75.0 70.9 70.9 71.3 70.6 100 70.9 0.0 1.0 --- 0.00 30.083
08/15/2004 12:00 p 76.0 71.9 71.9 72.4 71.3 100 71.9 0.0 0.0 --- 0.00 30.089
08/15/2004 12:30 p 75.0 70.5 70.5 71.5 70.0 100 70.5 0.0 0.0 --- 0.00 30.089
08/15/2004 1:00 p 75.0 70.7 70.7 71.9 70.1 100 70.7 0.0 0.0 --- 0.00 30.089
08/15/2004 1:30 p 80.0 75.8 75.8 78.7 71.9 95 74.3 0.0 1.0 N 0.00 30.081
08/15/2004 2:00 p 81.4 77.1 77.1 80.0 75.4 94 75.2 0.0 1.0 N 0.00 30.081
08/15/2004 2:30 p 81.7 76.9 76.9 79.3 74.6 97 76.0 0.0 2.0 N 0.00 30.085
08/15/2004 3:00 p 78.0 73.9 73.9 74.5 73.6 100 73.9 0.0 0.0 --- 0.00 30.085
08/15/2004 3:30 p 78.0 74.3 74.3 74.7 74.2 100 74.3 0.0 0.0 --- 0.00 30.083
08/15/2004 4:00 p 78.7 74.7 74.7 75.1 74.3 97 73.8 0.0 0.0 --- 0.00 30.081
08/15/2004 4:30 p 76.8 74.4 74.4 74.5 74.3 94 72.6 0.0 1.0 --- 0.00 30.079
08/15/2004 5:00 p 76.0 74.3 74.3 74.5 74.3 90 71.2 0.0 1.0 --- 0.00 30.087
08/15/2004 5:30 p 76.0 74.1 74.1 74.3 73.7 90 71.0 0.0 0.0 --- 0.00 30.086
08/15/2004 6:00 p 75.0 73.4 73.4 73.7 73.2 90 70.3 0.0 0.0 --- 0.00 30.081
08/15/2004 6:30 p 75.0 73.0 73.0 73.2 72.7 90 69.9 0.0 0.0 --- 0.00 30.077
08/15/2004 7:00 p 75.6 72.5 72.5 72.8 72.3 93 70.4 0.0 1.0 N 0.00 30.076
08/15/2004 7:30 p 74.6 72.2 72.2 72.3 72.1 93 70.1 0.0 1.0 N 0.00 30.075
08/15/2004 8:00 p 74.6 71.8 71.8 72.1 71.6 93 69.7 0.0 1.0 --- 0.00 30.080
08/15/2004 8:30 p 74.6 71.5 71.5 71.6 71.3 93 69.4 0.0 1.0 N 0.00 30.083
08/15/2004 9:00 p 74.0 71.0 71.0 71.4 70.6 95 69.5 0.0 1.0 --- 0.00 30.089
08/15/2004 9:30 p 73.4 70.4 70.4 70.6 70.2 97 69.5 0.0 0.0 --- 0.00 30.076
08/15/2004 10:00 p 74.0 69.9 69.9 70.2 69.7 100 69.9 0.0 0.0 --- 0.00 30.086
08/15/2004 10:30 p 72.0 69.4 69.4 69.7 69.3 100 69.4 0.0 0.0 --- 0.00 30.087
08/15/2004 11:00 p 73.8 69.8 69.8 70.1 69.3 99 69.5 0.0 1.0 --- 0.00 30.087
08/15/2004 11:30 p 73.2 70.3 70.3 70.4 70.1 96 69.1 0.0 2.0 N 0.00 30.092
08/16/2004 12:00 a 73.4 70.3 70.3 70.3 70.2 97 69.4 0.0 1.0 --- 0.00 30.075
08/16/2004 12:30 a 74.0 70.0 70.0 70.2 69.9 100 70.0 0.0 1.0 N 0.00 30.068
08/16/2004 1:00 a 73.8 70.0 70.0 70.1 69.9 99 69.7 0.0 1.0 N 0.00 30.087
08/16/2004 1:30 a 74.0 70.0 70.0 70.1 69.8 100 70.0 0.0 0.0 --- 0.00 30.068
08/16/2004 2:00 a 74.0 69.8 69.8 69.8 69.7 100 69.8 0.0 0.0 --- 0.00 30.067
08/16/2004 2:30 a 74.0 69.8 69.8 69.8 69.8 100 69.8 0.0 0.0 --- 0.00 30.068
08/16/2004 3:00 a 74.0 69.8 69.8 69.8 69.7 100 69.8 0.0 0.0 --- 0.00 30.068
08/16/2004 3:30 a 74.0 69.7 69.7 69.8 69.5 100 69.7 0.0 0.0 --- 0.00 30.058
08/16/2004 4:00 a 72.0 69.1 69.1 69.5 68.9 100 69.1 0.0 2.0 N 0.01 30.051
08/16/2004 4:30 a 72.0 68.5 68.5 68.9 67.8 100 68.5 0.0 1.0 N 0.00 30.055
08/16/2004 5:00 a 67.4 67.4 67.4 67.8 67.3 100 67.4 0.0 1.0 N 0.00 30.047
08/16/2004 5:30 a 67.4 67.4 67.4 67.4 67.3 100 67.4 0.0 0.0 --- 0.00 30.055
08/16/2004 6:00 a 67.3 67.3 67.3 67.4 67.2 100 67.3 0.0 0.0 --- 0.00 30.053
08/16/2004 6:30 a 67.1 67.1 67.1 67.3 67.0 100 67.1 0.0 0.0 --- 0.00 30.060
08/16/2004 7:00 a 67.2 67.2 67.2 67.3 67.1 100 67.2 0.0 0.0 --- 0.00 30.059
08/16/2004 7:30 a 67.4 67.4 67.4 67.4 67.3 100 67.4 0.0 0.0 --- 0.00 30.054
08/16/2004 8:00 a 67.5 67.5 67.5 67.6 67.4 100 67.5 0.0 0.0 --- 0.00 30.049
08/16/2004 8:30 a 67.5 67.5 67.5 67.7 67.3 100 67.5 0.0 1.0 N 0.01 30.047
08/16/2004 9:00 a 67.5 67.5 67.5 67.5 67.4 100 67.5 0.0 1.0 N 0.02 30.044
08/16/2004 9:30 a 67.7 67.7 67.7 67.9 67.4 100 67.7 0.0 0.0 --- 0.03 30.030
08/16/2004 10:00 a 70.0 68.0 68.0 68.3 67.8 100 68.0 0.0 2.0 N 0.01 30.052
08/16/2004 10:30 a 67.9 67.9 67.9 68.1 67.9 100 67.9 0.0 0.0 --- 0.00 30.023
08/16/2004 11:00 a 70.0 68.2 68.2 68.6 67.9 100 68.2 0.0 0.0 --- 0.00 30.056
08/16/2004 11:30 a 70.0 68.2 68.2 68.5 68.1 100 68.2 0.0 2.0 E 0.00 30.013
08/16/2004 12:00 p 72.0 68.6 68.6 68.8 68.2 100 68.6 0.0 1.0 --- 0.00 30.021
08/16/2004 12:30 p 74.0 69.5 69.5 70.1 68.8 100 69.5 0.0 0.0 --- 0.00 30.004
08/16/2004 1:00 p 75.0 71.3 71.3 72.6 70.0 100 71.3 0.0 0.0 --- 0.00 29.997
08/16/2004 1:30 p 77.0 73.4 73.4 76.6 71.2 100 73.4 0.0 0.0 --- 0.00 29.992
08/16/2004 2:00 p 78.8 75.1 75.1 76.0 73.8 98 74.5 0.0 2.0 N 0.00 29.988
08/16/2004 2:30 p 77.0 73.2 73.2 74.4 72.5 100 73.2 0.0 3.0 N 0.00 29.983
08/16/2004 3:00 p 78.0 73.8 73.8 74.5 73.1 100 73.8 0.0 2.0 N 0.00 29.976
08/16/2004 3:30 p 77.4 74.3 74.3 75.4 73.5 97 73.4 0.0 3.0 NNW 0.00 29.974
08/16/2004 4:00 p 78.4 75.1 75.1 75.8 74.2 94 73.3 0.0 4.0 N 0.00 29.963
08/16/2004 4:30 p 76.0 72.1 72.1 74.2 69.9 100 72.1 0.0 3.0 N 0.01 29.972
08/16/2004 5:00 p 75.0 70.8 70.8 71.4 69.8 100 70.8 0.0 1.0 NNW 0.00 29.976
08/16/2004 5:30 p 75.0 70.9 70.9 71.4 70.1 100 70.9 0.0 1.0 NNW 0.00 29.977
08/16/2004 6:00 p 75.0 71.0 71.0 71.3 70.7 100 71.0 0.0 1.0 NNW 0.00 29.974
08/16/2004 6:30 p 75.0 70.5 70.5 70.7 70.2 100 70.5 0.0 0.0 --- 0.00 29.967
08/16/2004 7:00 p 74.0 69.9 69.9 70.2 69.7 100 69.9 0.0 0.0 --- 0.00 29.986
08/16/2004 7:30 p 72.0 69.4 69.4 69.8 68.7 100 69.4 0.0 0.0 --- 0.00 29.991
08/16/2004 8:00 p 72.0 68.5 68.5 68.8 68.1 100 68.5 0.0 0.0 --- 0.00 29.996
08/16/2004 8:30 p 67.9 67.9 67.9 68.1 67.6 100 67.9 0.0 0.0 --- 0.00 29.995
08/16/2004 9:00 p 70.0 68.1 68.1 68.3 67.9 100 68.1 0.0 0.0 --- 0.00 30.001
08/16/2004 9:30 p 67.6 67.6 67.6 68.0 67.3 100 67.6 0.0 1.0 NNW 0.00 29.993
08/16/2004 10:00 p 67.1 67.1 67.1 67.3 67.0 100 67.1 0.0 0.0 --- 0.00 29.992
08/16/2004 10:30 p 67.0 67.0 67.0 67.1 66.9 100 67.0 0.0 0.0 --- 0.00 30.000
08/16/2004 11:00 p 66.6 66.6 66.6 67.0 66.3 100 66.6 0.0 0.0 --- 0.00 30.008
08/16/2004 11:30 p 66.0 66.0 66.0 66.3 65.8 100 66.0 0.0 0.0 --- 0.00 30.011
08/17/2004 12:00 a 65.5 65.5 65.5 66.0 65.1 100 65.5 0.0 0.0 --- 0.00 30.011
08/17/2004 12:30 a 64.7 64.7 64.7 65.1 64.2 100 64.7 0.0 0.0 --- 0.00 30.007
08/17/2004 1:00 a 63.8 63.8 63.8 64.2 63.4 100 63.8 0.0 0.0 --- 0.00 29.995
08/17/2004 1:30 a 63.3 63.3 63.3 63.6 63.0 100 63.3 0.0 0.0 --- 0.00 29.992
08/17/2004 2:00 a 62.8 62.8 62.8 63.0 62.7 100 62.8 0.0 0.0 --- 0.00 29.989
08/17/2004 2:30 a 62.8 62.8 62.8 62.9 62.6 100 62.8 0.0 0.0 --- 0.00 29.992
08/17/2004 3:00 a 62.2 62.2 62.2 62.6 61.7 100 62.2 0.0 0.0 --- 0.00 29.986
08/17/2004 3:30 a 61.3 61.3 61.3 61.7 61.0 100 61.3 0.0 0.0 --- 0.00 29.984
08/17/2004 4:00 a 60.7 60.7 60.7 61.0 60.3 100 60.7 0.0 0.0 --- 0.00 29.980
08/17/2004 4:30 a 60.0 60.0 60.0 60.3 59.6 100 60.0 0.0 0.0 --- 0.00 29.986
08/17/2004 5:00 a 59.4 59.4 59.4 59.6 59.1 100 59.4 0.0 0.0 --- 0.00 29.991
08/17/2004 5:30 a 58.8 58.8 58.8 59.1 58.6 100 58.8 0.0 0.0 --- 0.00 30.002
08/17/2004 6:00 a 58.4 58.4 58.4 58.7 58.2 100 58.4 0.0 0.0 --- 0.00 30.002
08/17/2004 6:30 a 58.1 58.1 58.1 58.2 57.8 100 58.1 0.0 0.0 --- 0.00 30.009
08/17/2004 7:00 a 57.9 57.9 57.9 58.2 57.7 100 57.9 0.0 0.0 --- 0.00 30.017
08/17/2004 7:30 a 58.8 58.8 58.8 59.7 58.2 100 58.8 0.0 0.0 --- 0.00 30.025
08/17/2004 8:00 a 61.4 61.4 61.4 62.5 59.8 100 61.4 0.0 0.0 --- 0.00 30.031
08/17/2004 8:30 a 63.1 63.1 63.1 63.5 62.5 100 63.1 0.0 1.0 NNW 0.00 30.029
08/17/2004 9:00 a 64.9 64.9 64.9 67.4 63.5 100 64.9 0.0 0.0 --- 0.00 30.030
08/17/2004 9:30 a 70.0 68.1 68.1 69.0 67.0 100 68.1 0.0 2.0 ENE 0.00 30.028
08/17/2004 10:00 a 70.0 68.2 68.2 68.9 67.8 100 68.2 0.0 0.0 --- 0.00 30.019
08/17/2004 10:30 a 74.0 69.9 69.9 71.0 68.9 100 69.9 0.0 1.0 --- 0.00 30.020
08/17/2004 11:00 a 74.6 70.8 70.8 71.3 70.3 98 70.2 0.0 1.0 WNW 0.00 30.016
08/17/2004 11:30 a 74.2 72.3 72.3 73.0 71.4 91 69.5 0.0 2.0 WNW 0.00 30.011
08/17/2004 12:00 p 76.0 73.7 73.7 74.4 73.0 76 65.7 0.0 2.0 NW 0.00 30.004
08/17/2004 12:30 p 77.0 74.8 74.8 75.9 74.4 72 65.2 0.0 1.0 NW 0.00 29.991
08/17/2004 1:00 p 84.6 84.1 84.1 90.4 76.0 43 59.2 0.0 1.0 NW 0.00 29.979
08/17/2004 1:30 p 88.8 87.2 87.2 90.9 84.4 46 63.9 0.0 1.0 --- 0.00 29.970
08/17/2004 2:00 p 88.8 88.2 88.2 90.0 86.2 42 62.2 0.0 3.0 NW 0.00 29.959
08/17/2004 2:30 p 89.4 87.1 87.1 88.9 84.0 48 65.0 0.0 2.0 NW 0.00 29.949
08/17/2004 3:00 p 83.2 82.1 82.1 84.0 81.4 52 62.7 0.0 1.0 SE 0.00 29.941
08/17/2004 3:30 p 81.6 80.7 80.7 81.6 80.3 53 62.0 0.0 1.0 SE 0.00 29.930
08/17/2004 4:00 p 80.8 80.0 80.0 80.5 78.4 54 61.9 0.0 2.0 SE 0.00 29.922
08/17/2004 4:30 p 78.6 77.8 77.8 78.9 77.2 56 60.9 0.0 0.0 --- 0.00 29.920
08/17/2004 5:00 p 79.0 79.0 79.0 79.2 78.5 49 58.2 0.0 1.0 SE 0.00 29.912
08/17/2004 5:30 p 78.5 77.9 77.9 78.5 77.0 55 60.4 0.0 0.0 --- 0.00 29.908
08/17/2004 6:00 p 76.6 76.0 76.0 77.0 74.9 63 62.5 0.0 0.0 --- 0.00 29.903
08/17/2004 6:30 p 74.8 74.0 74.0 74.9 73.1 64 61.1 0.0 0.0 --- 0.00 29.902
08/17/2004 7:00 p 72.4 72.4 72.4 73.1 71.9 72 62.9 0.0 1.0 --- 0.00 29.906
08/17/2004 7:30 p 74.4 72.7 72.7 72.9 72.3 74 63.9 0.0 2.0 WNW 0.00 29.911
08/17/2004 8:00 p 73.4 71.6 71.6 72.3 70.9 77 64.0 0.0 1.0 --- 0.00 29.914
08/17/2004 8:30 p 71.8 70.2 70.2 71.0 69.5 79 63.4 0.0 1.0 WNW 0.00 29.921
08/17/2004 9:00 p 71.0 68.7 68.7 69.5 67.9 82 63.0 0.0 0.0 --- 0.00 29.933
08/17/2004 9:30 p 67.4 67.4 67.4 68.0 66.8 85 62.7 0.0 0.0 --- 0.00 29.937
08/17/2004 10:00 p 66.3 66.3 66.3 66.8 66.0 89 63.0 0.0 0.0 --- 0.00 29.932
08/17/2004 10:30 p 65.7 65.7 65.7 66.0 65.3 92 63.3 0.0 0.0 --- 0.00 29.935
08/17/2004 11:00 p 64.9 64.9 64.9 65.3 64.7 94 63.1 0.0 0.0 --- 0.00 29.930
08/17/2004 11:30 p 64.5 64.5 64.5 64.7 64.3 96 63.3 0.0 0.0 --- 0.00 29.928
08/18/2004 12:00 a 64.0 64.0 64.0 64.4 63.6 100 64.0 0.0 0.0 --- 0.00 29.925
08/18/2004 12:30 a 63.5 63.5 63.5 63.6 63.4 100 63.5 0.0 0.0 --- 0.00 29.921
08/18/2004 1:00 a 63.1 63.1 63.1 63.4 62.9 100 63.1 0.0 0.0 --- 0.00 29.918
08/18/2004 1:30 a 62.6 62.6 62.6 62.9 62.3 100 62.6 0.0 0.0 --- 0.00 29.915
08/18/2004 2:00 a 62.2 62.2 62.2 62.3 62.0 100 62.2 0.0 0.0 --- 0.00 29.905
08/18/2004 2:30 a 62.1 62.1 62.1 62.2 61.9 100 62.1 0.0 0.0 --- 0.00 29.893
08/18/2004 3:00 a 62.0 62.0 62.0 62.3 61.8 100 62.0 0.0 0.0 --- 0.00 29.892
08/18/2004 3:30 a 62.5 62.5 62.5 62.8 62.3 100 62.5 0.0 0.0 --- 0.00 29.887
08/18/2004 4:00 a 63.1 63.1 63.1 63.2 62.8 100 63.1 0.0 0.0 --- 0.00 29.881
08/18/2004 4:30 a 63